﻿<?xml version="1.0" encoding="UTF-8" standalone="no" ?>
<gpx xmlns="http://www.topografix.com/GPX/1/1" creator="CompeGPS" version="1.1" xmlns:xsi="http://www.w3.org/2001/XMLSchema-instance" xsi:schemaLocation="http://www.topografix.com/GPX/1/1 http://www.topografix.com/GPX/1/1/gpx.xsd http://www.garmin.com/xmlschemas/GpxExtensions/v3 http://www.garmin.com/xmlschemas/GpxExtensionsv3.xsd http://www.garmin.com/xmlschemas/TrackPointExtension/v1 http://www.garmin.com/xmlschemas/TrackPointExtensionv1.xsd" xmlns:gpxtpx="http://www.garmin.com/xmlschemas/TrackPointExtension/v1">
  <metadata>
    <link href="http://www.compegps.com">
      <text>CompeGPS TEAM, SL</text>
    </link>
    <time>2015-03-21T13:36:03Z</time>
    <bounds maxlat="42.850983" maxlon="1.819102" minlat="42.819117" minlon="1.771139"/>
  </metadata>
  <trk>
    <name>st barthelemy</name>
    <trkseg>
      <trkpt lat="42.850983" lon="1.819102">
        <ele>968.7</ele>
        <time>2010-02-07T09:22:26Z</time>
      </trkpt>
      <trkpt lat="42.850983" lon="1.819102">
        <ele>977.3</ele>
        <time>2010-02-07T09:22:27Z</time>
      </trkpt>
      <trkpt lat="42.850983" lon="1.819102">
        <ele>973.0</ele>
        <time>2010-02-07T09:22:28Z</time>
      </trkpt>
      <trkpt lat="42.850983" lon="1.819102">
        <ele>971.5</ele>
        <time>2010-02-07T09:22:30Z</time>
      </trkpt>
      <trkpt lat="42.850894" lon="1.818952">
        <ele>974.4</ele>
        <time>2010-02-07T09:23:31Z</time>
      </trkpt>
      <trkpt lat="42.850840" lon="1.818806">
        <ele>977.8</ele>
        <time>2010-02-07T09:24:26Z</time>
      </trkpt>
      <trkpt lat="42.850741" lon="1.818654">
        <ele>980.2</ele>
        <time>2010-02-07T09:24:44Z</time>
      </trkpt>
      <trkpt lat="42.850668" lon="1.818432">
        <ele>982.1</ele>
        <time>2010-02-07T09:25:04Z</time>
      </trkpt>
      <trkpt lat="42.850602" lon="1.818321">
        <ele>984.5</ele>
        <time>2010-02-07T09:25:17Z</time>
      </trkpt>
      <trkpt lat="42.850531" lon="1.818216">
        <ele>987.9</ele>
        <time>2010-02-07T09:25:38Z</time>
      </trkpt>
      <trkpt lat="42.850478" lon="1.818008">
        <ele>991.3</ele>
        <time>2010-02-07T09:26:10Z</time>
      </trkpt>
      <trkpt lat="42.850415" lon="1.817843">
        <ele>992.7</ele>
        <time>2010-02-07T09:26:23Z</time>
      </trkpt>
      <trkpt lat="42.850327" lon="1.817655">
        <ele>992.7</ele>
        <time>2010-02-07T09:26:34Z</time>
      </trkpt>
      <trkpt lat="42.850226" lon="1.817517">
        <ele>995.1</ele>
        <time>2010-02-07T09:26:44Z</time>
      </trkpt>
      <trkpt lat="42.850111" lon="1.817413">
        <ele>996.5</ele>
        <time>2010-02-07T09:26:56Z</time>
      </trkpt>
      <trkpt lat="42.850063" lon="1.817374">
        <ele>997.5</ele>
        <time>2010-02-07T09:27:07Z</time>
      </trkpt>
      <trkpt lat="42.849951" lon="1.817293">
        <ele>998.0</ele>
        <time>2010-02-07T09:27:19Z</time>
      </trkpt>
      <trkpt lat="42.849855" lon="1.817205">
        <ele>998.5</ele>
        <time>2010-02-07T09:27:30Z</time>
      </trkpt>
      <trkpt lat="42.849770" lon="1.817141">
        <ele>998.5</ele>
        <time>2010-02-07T09:27:38Z</time>
      </trkpt>
      <trkpt lat="42.849691" lon="1.817000">
        <ele>999.4</ele>
        <time>2010-02-07T09:27:50Z</time>
      </trkpt>
      <trkpt lat="42.849567" lon="1.816981">
        <ele>999.9</ele>
        <time>2010-02-07T09:28:01Z</time>
      </trkpt>
      <trkpt lat="42.849496" lon="1.816958">
        <ele>999.9</ele>
        <time>2010-02-07T09:28:12Z</time>
      </trkpt>
      <trkpt lat="42.849414" lon="1.816861">
        <ele>1001.8</ele>
        <time>2010-02-07T09:28:27Z</time>
      </trkpt>
      <trkpt lat="42.849401" lon="1.816855">
        <ele>1000.9</ele>
        <time>2010-02-07T09:28:28Z</time>
      </trkpt>
      <trkpt lat="42.849374" lon="1.816836">
        <ele>1000.4</ele>
        <time>2010-02-07T09:28:30Z</time>
      </trkpt>
      <trkpt lat="42.849314" lon="1.816779">
        <ele>1001.4</ele>
        <time>2010-02-07T09:28:37Z</time>
      </trkpt>
      <trkpt lat="42.849161" lon="1.816727">
        <ele>1002.3</ele>
        <time>2010-02-07T09:28:53Z</time>
      </trkpt>
      <trkpt lat="42.849111" lon="1.816713">
        <ele>1002.8</ele>
        <time>2010-02-07T09:28:59Z</time>
      </trkpt>
      <trkpt lat="42.849014" lon="1.816700">
        <ele>1004.2</ele>
        <time>2010-02-07T09:29:11Z</time>
      </trkpt>
      <trkpt lat="42.848926" lon="1.816651">
        <ele>1005.7</ele>
        <time>2010-02-07T09:29:24Z</time>
      </trkpt>
      <trkpt lat="42.848876" lon="1.816620">
        <ele>1007.1</ele>
        <time>2010-02-07T09:29:30Z</time>
      </trkpt>
      <trkpt lat="42.848691" lon="1.816471">
        <ele>1009.5</ele>
        <time>2010-02-07T09:30:00Z</time>
      </trkpt>
      <trkpt lat="42.848619" lon="1.816424">
        <ele>1010.5</ele>
        <time>2010-02-07T09:30:11Z</time>
      </trkpt>
      <trkpt lat="42.848537" lon="1.816392">
        <ele>1013.8</ele>
        <time>2010-02-07T09:30:23Z</time>
      </trkpt>
      <trkpt lat="42.848457" lon="1.816379">
        <ele>1015.3</ele>
        <time>2010-02-07T09:30:31Z</time>
      </trkpt>
      <trkpt lat="42.848402" lon="1.816374">
        <ele>1015.8</ele>
        <time>2010-02-07T09:30:42Z</time>
      </trkpt>
      <trkpt lat="42.848391" lon="1.816364">
        <ele>1016.7</ele>
        <time>2010-02-07T09:30:44Z</time>
      </trkpt>
      <trkpt lat="42.848333" lon="1.816362">
        <ele>1017.2</ele>
        <time>2010-02-07T09:30:51Z</time>
      </trkpt>
      <trkpt lat="42.848246" lon="1.816397">
        <ele>1019.6</ele>
        <time>2010-02-07T09:31:00Z</time>
      </trkpt>
      <trkpt lat="42.848165" lon="1.816372">
        <ele>1020.1</ele>
        <time>2010-02-07T09:31:11Z</time>
      </trkpt>
      <trkpt lat="42.848106" lon="1.816257">
        <ele>1022.0</ele>
        <time>2010-02-07T09:31:28Z</time>
      </trkpt>
      <trkpt lat="42.848029" lon="1.816173">
        <ele>1025.4</ele>
        <time>2010-02-07T09:31:45Z</time>
      </trkpt>
      <trkpt lat="42.847906" lon="1.816043">
        <ele>1028.7</ele>
        <time>2010-02-07T09:32:15Z</time>
      </trkpt>
      <trkpt lat="42.847765" lon="1.815899">
        <ele>1029.2</ele>
        <time>2010-02-07T09:32:32Z</time>
      </trkpt>
      <trkpt lat="42.847640" lon="1.815771">
        <ele>1032.6</ele>
        <time>2010-02-07T09:32:50Z</time>
      </trkpt>
      <trkpt lat="42.847302" lon="1.815457">
        <ele>1036.0</ele>
        <time>2010-02-07T09:33:20Z</time>
      </trkpt>
      <trkpt lat="42.847295" lon="1.815445">
        <ele>1035.5</ele>
        <time>2010-02-07T09:33:21Z</time>
      </trkpt>
      <trkpt lat="42.847223" lon="1.815317">
        <ele>1036.4</ele>
        <time>2010-02-07T09:33:35Z</time>
      </trkpt>
      <trkpt lat="42.847155" lon="1.815203">
        <ele>1036.9</ele>
        <time>2010-02-07T09:33:50Z</time>
      </trkpt>
      <trkpt lat="42.847015" lon="1.815133">
        <ele>1039.3</ele>
        <time>2010-02-07T09:34:06Z</time>
      </trkpt>
      <trkpt lat="42.846890" lon="1.815124">
        <ele>1041.2</ele>
        <time>2010-02-07T09:34:25Z</time>
      </trkpt>
      <trkpt lat="42.846823" lon="1.815066">
        <ele>1042.2</ele>
        <time>2010-02-07T09:34:37Z</time>
      </trkpt>
      <trkpt lat="42.846643" lon="1.814968">
        <ele>1045.6</ele>
        <time>2010-02-07T09:35:03Z</time>
      </trkpt>
      <trkpt lat="42.846548" lon="1.814924">
        <ele>1046.5</ele>
        <time>2010-02-07T09:35:20Z</time>
      </trkpt>
      <trkpt lat="42.846529" lon="1.814900">
        <ele>1050.9</ele>
        <time>2010-02-07T09:36:23Z</time>
      </trkpt>
      <trkpt lat="42.846529" lon="1.814900">
        <ele>1047.0</ele>
        <time>2010-02-07T09:36:24Z</time>
      </trkpt>
      <trkpt lat="42.846539" lon="1.814896">
        <ele>1052.8</ele>
        <time>2010-02-07T09:36:26Z</time>
      </trkpt>
      <trkpt lat="42.846539" lon="1.814896">
        <ele>1049.4</ele>
        <time>2010-02-07T09:36:27Z</time>
      </trkpt>
      <trkpt lat="42.846539" lon="1.814896">
        <ele>1022.0</ele>
        <time>2010-02-07T09:36:36Z</time>
      </trkpt>
      <trkpt lat="42.846550" lon="1.814882">
        <ele>1053.7</ele>
        <time>2010-02-07T09:36:37Z</time>
      </trkpt>
      <trkpt lat="42.846546" lon="1.814868">
        <ele>1049.9</ele>
        <time>2010-02-07T09:36:38Z</time>
      </trkpt>
      <trkpt lat="42.846546" lon="1.814868">
        <ele>1023.0</ele>
        <time>2010-02-07T09:36:39Z</time>
      </trkpt>
      <trkpt lat="42.846546" lon="1.814868">
        <ele>1047.5</ele>
        <time>2010-02-07T09:36:40Z</time>
      </trkpt>
      <trkpt lat="42.846542" lon="1.814851">
        <ele>1055.7</ele>
        <time>2010-02-07T09:36:43Z</time>
      </trkpt>
      <trkpt lat="42.846542" lon="1.814851">
        <ele>1048.9</ele>
        <time>2010-02-07T09:36:44Z</time>
      </trkpt>
      <trkpt lat="42.846542" lon="1.814851">
        <ele>1047.0</ele>
        <time>2010-02-07T09:36:46Z</time>
      </trkpt>
      <trkpt lat="42.846536" lon="1.814837">
        <ele>1046.5</ele>
        <time>2010-02-07T09:36:53Z</time>
      </trkpt>
      <trkpt lat="42.846536" lon="1.814837">
        <ele>1060.5</ele>
        <time>2010-02-07T09:36:54Z</time>
      </trkpt>
      <trkpt lat="42.846536" lon="1.814837">
        <ele>1047.5</ele>
        <time>2010-02-07T09:36:55Z</time>
      </trkpt>
      <trkpt lat="42.846536" lon="1.814837">
        <ele>1048.0</ele>
        <time>2010-02-07T09:37:03Z</time>
      </trkpt>
      <trkpt lat="42.846504" lon="1.814643">
        <ele>1050.9</ele>
        <time>2010-02-07T09:37:43Z</time>
      </trkpt>
      <trkpt lat="42.846632" lon="1.814456">
        <ele>1054.2</ele>
        <time>2010-02-07T09:38:05Z</time>
      </trkpt>
      <trkpt lat="42.846664" lon="1.814372">
        <ele>1055.7</ele>
        <time>2010-02-07T09:38:18Z</time>
      </trkpt>
      <trkpt lat="42.846683" lon="1.814347">
        <ele>1057.6</ele>
        <time>2010-02-07T09:38:25Z</time>
      </trkpt>
      <trkpt lat="42.846723" lon="1.814185">
        <ele>1061.0</ele>
        <time>2010-02-07T09:38:49Z</time>
      </trkpt>
      <trkpt lat="42.846722" lon="1.814094">
        <ele>1063.8</ele>
        <time>2010-02-07T09:39:11Z</time>
      </trkpt>
      <trkpt lat="42.846731" lon="1.814008">
        <ele>1068.2</ele>
        <time>2010-02-07T09:39:30Z</time>
      </trkpt>
      <trkpt lat="42.846737" lon="1.814010">
        <ele>1069.1</ele>
        <time>2010-02-07T09:39:45Z</time>
      </trkpt>
      <trkpt lat="42.846747" lon="1.813794">
        <ele>1072.0</ele>
        <time>2010-02-07T09:40:24Z</time>
      </trkpt>
      <trkpt lat="42.846749" lon="1.813775">
        <ele>1075.4</ele>
        <time>2010-02-07T09:40:43Z</time>
      </trkpt>
      <trkpt lat="42.846749" lon="1.813775">
        <ele>1076.3</ele>
        <time>2010-02-07T09:40:54Z</time>
      </trkpt>
      <trkpt lat="42.846775" lon="1.813623">
        <ele>1079.7</ele>
        <time>2010-02-07T09:41:25Z</time>
      </trkpt>
      <trkpt lat="42.846779" lon="1.813401">
        <ele>1084.0</ele>
        <time>2010-02-07T09:42:03Z</time>
      </trkpt>
      <trkpt lat="42.846779" lon="1.813401">
        <ele>1084.0</ele>
        <time>2010-02-07T09:42:04Z</time>
      </trkpt>
      <trkpt lat="42.846745" lon="1.813017">
        <ele>1087.4</ele>
        <time>2010-02-07T09:42:41Z</time>
      </trkpt>
      <trkpt lat="42.846688" lon="1.812827">
        <ele>1089.8</ele>
        <time>2010-02-07T09:43:05Z</time>
      </trkpt>
      <trkpt lat="42.846670" lon="1.812507">
        <ele>1093.6</ele>
        <time>2010-02-07T09:43:37Z</time>
      </trkpt>
      <trkpt lat="42.846679" lon="1.812359">
        <ele>1096.5</ele>
        <time>2010-02-07T09:44:04Z</time>
      </trkpt>
      <trkpt lat="42.846680" lon="1.812233">
        <ele>1098.0</ele>
        <time>2010-02-07T09:45:20Z</time>
      </trkpt>
      <trkpt lat="42.846676" lon="1.812213">
        <ele>1096.0</ele>
        <time>2010-02-07T09:45:52Z</time>
      </trkpt>
      <trkpt lat="42.846675" lon="1.812203">
        <ele>1096.0</ele>
        <time>2010-02-07T09:46:16Z</time>
      </trkpt>
      <trkpt lat="42.846631" lon="1.811945">
        <ele>1099.4</ele>
        <time>2010-02-07T09:48:32Z</time>
      </trkpt>
      <trkpt lat="42.846626" lon="1.811929">
        <ele>1099.4</ele>
        <time>2010-02-07T09:48:37Z</time>
      </trkpt>
      <trkpt lat="42.846626" lon="1.811929">
        <ele>1098.4</ele>
        <time>2010-02-07T09:48:41Z</time>
      </trkpt>
      <trkpt lat="42.846588" lon="1.811759">
        <ele>1102.3</ele>
        <time>2010-02-07T09:49:04Z</time>
      </trkpt>
      <trkpt lat="42.846545" lon="1.811599">
        <ele>1104.2</ele>
        <time>2010-02-07T09:49:24Z</time>
      </trkpt>
      <trkpt lat="42.846533" lon="1.811414">
        <ele>1107.1</ele>
        <time>2010-02-07T09:49:44Z</time>
      </trkpt>
      <trkpt lat="42.846505" lon="1.811251">
        <ele>1110.5</ele>
        <time>2010-02-07T09:50:09Z</time>
      </trkpt>
      <trkpt lat="42.846471" lon="1.811134">
        <ele>1112.9</ele>
        <time>2010-02-07T09:50:26Z</time>
      </trkpt>
      <trkpt lat="42.846466" lon="1.811064">
        <ele>1115.3</ele>
        <time>2010-02-07T09:50:49Z</time>
      </trkpt>
      <trkpt lat="42.846439" lon="1.810854">
        <ele>1117.2</ele>
        <time>2010-02-07T09:51:10Z</time>
      </trkpt>
      <trkpt lat="42.846439" lon="1.810854">
        <ele>1118.6</ele>
        <time>2010-02-07T09:51:13Z</time>
      </trkpt>
      <trkpt lat="42.846359" lon="1.810607">
        <ele>1122.0</ele>
        <time>2010-02-07T09:51:37Z</time>
      </trkpt>
      <trkpt lat="42.846343" lon="1.810446">
        <ele>1124.9</ele>
        <time>2010-02-07T09:51:57Z</time>
      </trkpt>
      <trkpt lat="42.846277" lon="1.810202">
        <ele>1128.2</ele>
        <time>2010-02-07T09:52:19Z</time>
      </trkpt>
      <trkpt lat="42.846251" lon="1.809991">
        <ele>1129.7</ele>
        <time>2010-02-07T09:52:39Z</time>
      </trkpt>
      <trkpt lat="42.846228" lon="1.809902">
        <ele>1133.1</ele>
        <time>2010-02-07T09:52:58Z</time>
      </trkpt>
      <trkpt lat="42.846198" lon="1.809726">
        <ele>1136.4</ele>
        <time>2010-02-07T09:53:24Z</time>
      </trkpt>
      <trkpt lat="42.846198" lon="1.809717">
        <ele>1136.4</ele>
        <time>2010-02-07T09:53:25Z</time>
      </trkpt>
      <trkpt lat="42.846186" lon="1.809633">
        <ele>1139.3</ele>
        <time>2010-02-07T09:53:50Z</time>
      </trkpt>
      <trkpt lat="42.846181" lon="1.809564">
        <ele>1142.7</ele>
        <time>2010-02-07T09:54:08Z</time>
      </trkpt>
      <trkpt lat="42.846181" lon="1.809534">
        <ele>1145.5</ele>
        <time>2010-02-07T09:54:26Z</time>
      </trkpt>
      <trkpt lat="42.846152" lon="1.809045">
        <ele>1149.4</ele>
        <time>2010-02-07T09:54:56Z</time>
      </trkpt>
      <trkpt lat="42.846133" lon="1.808935">
        <ele>1152.3</ele>
        <time>2010-02-07T09:55:23Z</time>
      </trkpt>
      <trkpt lat="42.846136" lon="1.808735">
        <ele>1156.1</ele>
        <time>2010-02-07T09:55:44Z</time>
      </trkpt>
      <trkpt lat="42.846131" lon="1.808592">
        <ele>1159.5</ele>
        <time>2010-02-07T09:56:10Z</time>
      </trkpt>
      <trkpt lat="42.846129" lon="1.808439">
        <ele>1160.4</ele>
        <time>2010-02-07T09:56:27Z</time>
      </trkpt>
      <trkpt lat="42.846139" lon="1.808390">
        <ele>1163.8</ele>
        <time>2010-02-07T09:56:40Z</time>
      </trkpt>
      <trkpt lat="42.846174" lon="1.808233">
        <ele>1166.7</ele>
        <time>2010-02-07T09:57:12Z</time>
      </trkpt>
      <trkpt lat="42.846154" lon="1.808106">
        <ele>1170.1</ele>
        <time>2010-02-07T09:57:52Z</time>
      </trkpt>
      <trkpt lat="42.846182" lon="1.808057">
        <ele>1172.0</ele>
        <time>2010-02-07T09:58:09Z</time>
      </trkpt>
      <trkpt lat="42.846221" lon="1.808143">
        <ele>1175.3</ele>
        <time>2010-02-07T09:58:30Z</time>
      </trkpt>
      <trkpt lat="42.846297" lon="1.808286">
        <ele>1178.7</ele>
        <time>2010-02-07T09:58:53Z</time>
      </trkpt>
      <trkpt lat="42.846354" lon="1.808373">
        <ele>1181.6</ele>
        <time>2010-02-07T09:59:14Z</time>
      </trkpt>
      <trkpt lat="42.846424" lon="1.808521">
        <ele>1184.5</ele>
        <time>2010-02-07T09:59:37Z</time>
      </trkpt>
      <trkpt lat="42.846473" lon="1.808566">
        <ele>1186.9</ele>
        <time>2010-02-07T09:59:49Z</time>
      </trkpt>
      <trkpt lat="42.846568" lon="1.808662">
        <ele>1190.2</ele>
        <time>2010-02-07T10:00:14Z</time>
      </trkpt>
      <trkpt lat="42.846689" lon="1.808737">
        <ele>1193.6</ele>
        <time>2010-02-07T10:00:40Z</time>
      </trkpt>
      <trkpt lat="42.846742" lon="1.808818">
        <ele>1196.5</ele>
        <time>2010-02-07T10:01:01Z</time>
      </trkpt>
      <trkpt lat="42.846814" lon="1.808955">
        <ele>1200.3</ele>
        <time>2010-02-07T10:01:26Z</time>
      </trkpt>
      <trkpt lat="42.846908" lon="1.809114">
        <ele>1204.2</ele>
        <time>2010-02-07T10:01:58Z</time>
      </trkpt>
      <trkpt lat="42.846922" lon="1.809204">
        <ele>1207.1</ele>
        <time>2010-02-07T10:02:41Z</time>
      </trkpt>
      <trkpt lat="42.846966" lon="1.809241">
        <ele>1208.5</ele>
        <time>2010-02-07T10:02:59Z</time>
      </trkpt>
      <trkpt lat="42.847088" lon="1.809382">
        <ele>1211.9</ele>
        <time>2010-02-07T10:03:23Z</time>
      </trkpt>
      <trkpt lat="42.847125" lon="1.809421">
        <ele>1214.8</ele>
        <time>2010-02-07T10:03:37Z</time>
      </trkpt>
      <trkpt lat="42.847125" lon="1.809421">
        <ele>1215.2</ele>
        <time>2010-02-07T10:03:38Z</time>
      </trkpt>
      <trkpt lat="42.847231" lon="1.809493">
        <ele>1218.6</ele>
        <time>2010-02-07T10:03:59Z</time>
      </trkpt>
      <trkpt lat="42.847265" lon="1.809539">
        <ele>1220.1</ele>
        <time>2010-02-07T10:04:08Z</time>
      </trkpt>
      <trkpt lat="42.847270" lon="1.809537">
        <ele>1220.5</ele>
        <time>2010-02-07T10:04:13Z</time>
      </trkpt>
      <trkpt lat="42.847392" lon="1.809570">
        <ele>1223.9</ele>
        <time>2010-02-07T10:04:51Z</time>
      </trkpt>
      <trkpt lat="42.847403" lon="1.809580">
        <ele>1224.9</ele>
        <time>2010-02-07T10:04:53Z</time>
      </trkpt>
      <trkpt lat="42.847473" lon="1.809645">
        <ele>1226.3</ele>
        <time>2010-02-07T10:05:07Z</time>
      </trkpt>
      <trkpt lat="42.847579" lon="1.809660">
        <ele>1228.2</ele>
        <time>2010-02-07T10:05:22Z</time>
      </trkpt>
      <trkpt lat="42.847624" lon="1.809669">
        <ele>1229.7</ele>
        <time>2010-02-07T10:05:33Z</time>
      </trkpt>
      <trkpt lat="42.847737" lon="1.809653">
        <ele>1232.5</ele>
        <time>2010-02-07T10:06:03Z</time>
      </trkpt>
      <trkpt lat="42.847916" lon="1.809704">
        <ele>1233.0</ele>
        <time>2010-02-07T10:06:19Z</time>
      </trkpt>
      <trkpt lat="42.848012" lon="1.809741">
        <ele>1236.4</ele>
        <time>2010-02-07T10:06:33Z</time>
      </trkpt>
      <trkpt lat="42.848072" lon="1.809795">
        <ele>1237.4</ele>
        <time>2010-02-07T10:06:43Z</time>
      </trkpt>
      <trkpt lat="42.848145" lon="1.809848">
        <ele>1240.7</ele>
        <time>2010-02-07T10:07:00Z</time>
      </trkpt>
      <trkpt lat="42.848209" lon="1.809869">
        <ele>1240.7</ele>
        <time>2010-02-07T10:07:11Z</time>
      </trkpt>
      <trkpt lat="42.848314" lon="1.809834">
        <ele>1243.6</ele>
        <time>2010-02-07T10:07:30Z</time>
      </trkpt>
      <trkpt lat="42.848349" lon="1.809752">
        <ele>1247.4</ele>
        <time>2010-02-07T10:07:58Z</time>
      </trkpt>
      <trkpt lat="42.848351" lon="1.809748">
        <ele>1247.4</ele>
        <time>2010-02-07T10:07:59Z</time>
      </trkpt>
      <trkpt lat="42.848350" lon="1.809684">
        <ele>1250.8</ele>
        <time>2010-02-07T10:08:27Z</time>
      </trkpt>
      <trkpt lat="42.848338" lon="1.809599">
        <ele>1254.2</ele>
        <time>2010-02-07T10:08:56Z</time>
      </trkpt>
      <trkpt lat="42.848318" lon="1.809524">
        <ele>1256.1</ele>
        <time>2010-02-07T10:10:30Z</time>
      </trkpt>
      <trkpt lat="42.848316" lon="1.809499">
        <ele>1250.3</ele>
        <time>2010-02-07T10:10:45Z</time>
      </trkpt>
      <trkpt lat="42.848316" lon="1.809499">
        <ele>1254.7</ele>
        <time>2010-02-07T10:10:46Z</time>
      </trkpt>
      <trkpt lat="42.848287" lon="1.809418">
        <ele>1255.1</ele>
        <time>2010-02-07T10:13:13Z</time>
      </trkpt>
      <trkpt lat="42.848292" lon="1.809404">
        <ele>1251.8</ele>
        <time>2010-02-07T10:13:25Z</time>
      </trkpt>
      <trkpt lat="42.848291" lon="1.809378">
        <ele>1254.7</ele>
        <time>2010-02-07T10:13:31Z</time>
      </trkpt>
      <trkpt lat="42.848313" lon="1.809356">
        <ele>1249.4</ele>
        <time>2010-02-07T10:13:39Z</time>
      </trkpt>
      <trkpt lat="42.848313" lon="1.809356">
        <ele>1251.8</ele>
        <time>2010-02-07T10:13:40Z</time>
      </trkpt>
      <trkpt lat="42.848313" lon="1.809356">
        <ele>1253.7</ele>
        <time>2010-02-07T10:13:42Z</time>
      </trkpt>
      <trkpt lat="42.848305" lon="1.809353">
        <ele>1256.6</ele>
        <time>2010-02-07T10:13:44Z</time>
      </trkpt>
      <trkpt lat="42.848256" lon="1.809356">
        <ele>1252.7</ele>
        <time>2010-02-07T10:13:48Z</time>
      </trkpt>
      <trkpt lat="42.848246" lon="1.809346">
        <ele>1252.7</ele>
        <time>2010-02-07T10:14:06Z</time>
      </trkpt>
      <trkpt lat="42.848266" lon="1.809298">
        <ele>1257.1</ele>
        <time>2010-02-07T10:14:10Z</time>
      </trkpt>
      <trkpt lat="42.848271" lon="1.809286">
        <ele>1250.3</ele>
        <time>2010-02-07T10:14:11Z</time>
      </trkpt>
      <trkpt lat="42.848276" lon="1.809274">
        <ele>1251.8</ele>
        <time>2010-02-07T10:14:12Z</time>
      </trkpt>
      <trkpt lat="42.848281" lon="1.809262">
        <ele>1238.3</ele>
        <time>2010-02-07T10:14:13Z</time>
      </trkpt>
      <trkpt lat="42.848286" lon="1.809250">
        <ele>1275.8</ele>
        <time>2010-02-07T10:14:14Z</time>
      </trkpt>
      <trkpt lat="42.848279" lon="1.809263">
        <ele>1258.0</ele>
        <time>2010-02-07T10:14:15Z</time>
      </trkpt>
      <trkpt lat="42.848279" lon="1.809263">
        <ele>1253.2</ele>
        <time>2010-02-07T10:14:16Z</time>
      </trkpt>
      <trkpt lat="42.848273" lon="1.809300">
        <ele>1245.0</ele>
        <time>2010-02-07T10:14:21Z</time>
      </trkpt>
      <trkpt lat="42.848273" lon="1.809300">
        <ele>1257.1</ele>
        <time>2010-02-07T10:14:22Z</time>
      </trkpt>
      <trkpt lat="42.848273" lon="1.809300">
        <ele>1248.4</ele>
        <time>2010-02-07T10:14:23Z</time>
      </trkpt>
      <trkpt lat="42.848273" lon="1.809300">
        <ele>1266.2</ele>
        <time>2010-02-07T10:14:24Z</time>
      </trkpt>
      <trkpt lat="42.848272" lon="1.809305">
        <ele>1260.4</ele>
        <time>2010-02-07T10:14:25Z</time>
      </trkpt>
      <trkpt lat="42.848274" lon="1.809279">
        <ele>1253.7</ele>
        <time>2010-02-07T10:14:26Z</time>
      </trkpt>
      <trkpt lat="42.848274" lon="1.809279">
        <ele>1255.1</ele>
        <time>2010-02-07T10:14:27Z</time>
      </trkpt>
      <trkpt lat="42.848256" lon="1.809283">
        <ele>1253.2</ele>
        <time>2010-02-07T10:14:45Z</time>
      </trkpt>
      <trkpt lat="42.848228" lon="1.809319">
        <ele>1253.2</ele>
        <time>2010-02-07T10:15:02Z</time>
      </trkpt>
      <trkpt lat="42.848233" lon="1.809318">
        <ele>1253.2</ele>
        <time>2010-02-07T10:15:29Z</time>
      </trkpt>
      <trkpt lat="42.848237" lon="1.809291">
        <ele>1255.1</ele>
        <time>2010-02-07T10:15:42Z</time>
      </trkpt>
      <trkpt lat="42.848237" lon="1.809291">
        <ele>1253.2</ele>
        <time>2010-02-07T10:15:45Z</time>
      </trkpt>
      <trkpt lat="42.848235" lon="1.809293">
        <ele>1255.6</ele>
        <time>2010-02-07T10:16:02Z</time>
      </trkpt>
      <trkpt lat="42.848227" lon="1.809311">
        <ele>1253.7</ele>
        <time>2010-02-07T10:16:21Z</time>
      </trkpt>
      <trkpt lat="42.848207" lon="1.809310">
        <ele>1254.7</ele>
        <time>2010-02-07T10:17:06Z</time>
      </trkpt>
      <trkpt lat="42.848136" lon="1.809281">
        <ele>1255.1</ele>
        <time>2010-02-07T10:17:16Z</time>
      </trkpt>
      <trkpt lat="42.848067" lon="1.809222">
        <ele>1255.6</ele>
        <time>2010-02-07T10:17:26Z</time>
      </trkpt>
      <trkpt lat="42.848002" lon="1.809141">
        <ele>1257.1</ele>
        <time>2010-02-07T10:17:37Z</time>
      </trkpt>
      <trkpt lat="42.847950" lon="1.809081">
        <ele>1258.0</ele>
        <time>2010-02-07T10:17:47Z</time>
      </trkpt>
      <trkpt lat="42.847892" lon="1.808959">
        <ele>1258.0</ele>
        <time>2010-02-07T10:17:58Z</time>
      </trkpt>
      <trkpt lat="42.847886" lon="1.808949">
        <ele>1259.5</ele>
        <time>2010-02-07T10:17:59Z</time>
      </trkpt>
      <trkpt lat="42.847857" lon="1.808908">
        <ele>1259.9</ele>
        <time>2010-02-07T10:18:07Z</time>
      </trkpt>
      <trkpt lat="42.847795" lon="1.808848">
        <ele>1261.9</ele>
        <time>2010-02-07T10:18:16Z</time>
      </trkpt>
      <trkpt lat="42.847741" lon="1.808767">
        <ele>1263.8</ele>
        <time>2010-02-07T10:18:27Z</time>
      </trkpt>
      <trkpt lat="42.847736" lon="1.808764">
        <ele>1264.3</ele>
        <time>2010-02-07T10:18:28Z</time>
      </trkpt>
      <trkpt lat="42.847697" lon="1.808781">
        <ele>1265.2</ele>
        <time>2010-02-07T10:18:33Z</time>
      </trkpt>
      <trkpt lat="42.847665" lon="1.808701">
        <ele>1267.2</ele>
        <time>2010-02-07T10:18:44Z</time>
      </trkpt>
      <trkpt lat="42.847637" lon="1.808623">
        <ele>1268.1</ele>
        <time>2010-02-07T10:18:54Z</time>
      </trkpt>
      <trkpt lat="42.847611" lon="1.808529">
        <ele>1270.0</ele>
        <time>2010-02-07T10:19:09Z</time>
      </trkpt>
      <trkpt lat="42.847570" lon="1.808495">
        <ele>1272.0</ele>
        <time>2010-02-07T10:19:16Z</time>
      </trkpt>
      <trkpt lat="42.847540" lon="1.808396">
        <ele>1272.0</ele>
        <time>2010-02-07T10:19:26Z</time>
      </trkpt>
      <trkpt lat="42.847511" lon="1.808304">
        <ele>1272.4</ele>
        <time>2010-02-07T10:19:36Z</time>
      </trkpt>
      <trkpt lat="42.847462" lon="1.808187">
        <ele>1272.9</ele>
        <time>2010-02-07T10:19:48Z</time>
      </trkpt>
      <trkpt lat="42.847442" lon="1.808102">
        <ele>1275.3</ele>
        <time>2010-02-07T10:19:59Z</time>
      </trkpt>
      <trkpt lat="42.847435" lon="1.808028">
        <ele>1276.8</ele>
        <time>2010-02-07T10:20:11Z</time>
      </trkpt>
      <trkpt lat="42.847434" lon="1.808028">
        <ele>1275.3</ele>
        <time>2010-02-07T10:20:21Z</time>
      </trkpt>
      <trkpt lat="42.847421" lon="1.807975">
        <ele>1276.3</ele>
        <time>2010-02-07T10:20:32Z</time>
      </trkpt>
      <trkpt lat="42.847419" lon="1.807919">
        <ele>1277.7</ele>
        <time>2010-02-07T10:20:46Z</time>
      </trkpt>
      <trkpt lat="42.847413" lon="1.807883">
        <ele>1276.3</ele>
        <time>2010-02-07T10:20:52Z</time>
      </trkpt>
      <trkpt lat="42.847381" lon="1.807726">
        <ele>1277.2</ele>
        <time>2010-02-07T10:21:04Z</time>
      </trkpt>
      <trkpt lat="42.847368" lon="1.807661">
        <ele>1276.8</ele>
        <time>2010-02-07T10:21:08Z</time>
      </trkpt>
      <trkpt lat="42.847370" lon="1.807600">
        <ele>1275.8</ele>
        <time>2010-02-07T10:21:12Z</time>
      </trkpt>
      <trkpt lat="42.847370" lon="1.807579">
        <ele>1275.8</ele>
        <time>2010-02-07T10:21:14Z</time>
      </trkpt>
      <trkpt lat="42.847402" lon="1.807538">
        <ele>1275.3</ele>
        <time>2010-02-07T10:21:24Z</time>
      </trkpt>
      <trkpt lat="42.847391" lon="1.807504">
        <ele>1274.8</ele>
        <time>2010-02-07T10:21:26Z</time>
      </trkpt>
      <trkpt lat="42.847388" lon="1.807489">
        <ele>1274.4</ele>
        <time>2010-02-07T10:21:27Z</time>
      </trkpt>
      <trkpt lat="42.847405" lon="1.807367">
        <ele>1273.9</ele>
        <time>2010-02-07T10:21:34Z</time>
      </trkpt>
      <trkpt lat="42.847420" lon="1.807278">
        <ele>1273.4</ele>
        <time>2010-02-07T10:21:40Z</time>
      </trkpt>
      <trkpt lat="42.847433" lon="1.807248">
        <ele>1272.9</ele>
        <time>2010-02-07T10:21:42Z</time>
      </trkpt>
      <trkpt lat="42.847478" lon="1.807123">
        <ele>1273.9</ele>
        <time>2010-02-07T10:21:52Z</time>
      </trkpt>
      <trkpt lat="42.847502" lon="1.807043">
        <ele>1276.8</ele>
        <time>2010-02-07T10:22:02Z</time>
      </trkpt>
      <trkpt lat="42.847510" lon="1.807017">
        <ele>1276.3</ele>
        <time>2010-02-07T10:22:04Z</time>
      </trkpt>
      <trkpt lat="42.847551" lon="1.806877">
        <ele>1277.7</ele>
        <time>2010-02-07T10:22:21Z</time>
      </trkpt>
      <trkpt lat="42.847579" lon="1.806778">
        <ele>1278.2</ele>
        <time>2010-02-07T10:22:41Z</time>
      </trkpt>
      <trkpt lat="42.847616" lon="1.806676">
        <ele>1279.2</ele>
        <time>2010-02-07T10:22:56Z</time>
      </trkpt>
      <trkpt lat="42.847622" lon="1.806632">
        <ele>1279.7</ele>
        <time>2010-02-07T10:23:00Z</time>
      </trkpt>
      <trkpt lat="42.847627" lon="1.806603">
        <ele>1280.1</ele>
        <time>2010-02-07T10:23:02Z</time>
      </trkpt>
      <trkpt lat="42.847678" lon="1.806455">
        <ele>1281.1</ele>
        <time>2010-02-07T10:23:14Z</time>
      </trkpt>
      <trkpt lat="42.847687" lon="1.806353">
        <ele>1281.6</ele>
        <time>2010-02-07T10:23:21Z</time>
      </trkpt>
      <trkpt lat="42.847701" lon="1.806238">
        <ele>1282.5</ele>
        <time>2010-02-07T10:23:31Z</time>
      </trkpt>
      <trkpt lat="42.847694" lon="1.806176">
        <ele>1282.1</ele>
        <time>2010-02-07T10:23:35Z</time>
      </trkpt>
      <trkpt lat="42.847731" lon="1.806065">
        <ele>1283.5</ele>
        <time>2010-02-07T10:23:46Z</time>
      </trkpt>
      <trkpt lat="42.847727" lon="1.806024">
        <ele>1283.5</ele>
        <time>2010-02-07T10:23:50Z</time>
      </trkpt>
      <trkpt lat="42.847736" lon="1.805967">
        <ele>1284.9</ele>
        <time>2010-02-07T10:24:01Z</time>
      </trkpt>
      <trkpt lat="42.847755" lon="1.805858">
        <ele>1284.9</ele>
        <time>2010-02-07T10:24:20Z</time>
      </trkpt>
      <trkpt lat="42.847774" lon="1.805750">
        <ele>1286.9</ele>
        <time>2010-02-07T10:24:31Z</time>
      </trkpt>
      <trkpt lat="42.847783" lon="1.805728">
        <ele>1287.3</ele>
        <time>2010-02-07T10:24:56Z</time>
      </trkpt>
      <trkpt lat="42.847794" lon="1.805688">
        <ele>1287.3</ele>
        <time>2010-02-07T10:24:59Z</time>
      </trkpt>
      <trkpt lat="42.847826" lon="1.805544">
        <ele>1287.8</ele>
        <time>2010-02-07T10:25:08Z</time>
      </trkpt>
      <trkpt lat="42.847866" lon="1.805407">
        <ele>1289.7</ele>
        <time>2010-02-07T10:25:19Z</time>
      </trkpt>
      <trkpt lat="42.847877" lon="1.805341">
        <ele>1291.7</ele>
        <time>2010-02-07T10:25:27Z</time>
      </trkpt>
      <trkpt lat="42.847924" lon="1.805242">
        <ele>1292.6</ele>
        <time>2010-02-07T10:25:38Z</time>
      </trkpt>
      <trkpt lat="42.847951" lon="1.805140">
        <ele>1291.7</ele>
        <time>2010-02-07T10:25:50Z</time>
      </trkpt>
      <trkpt lat="42.847954" lon="1.805113">
        <ele>1295.0</ele>
        <time>2010-02-07T10:25:52Z</time>
      </trkpt>
      <trkpt lat="42.847994" lon="1.804988">
        <ele>1295.5</ele>
        <time>2010-02-07T10:26:03Z</time>
      </trkpt>
      <trkpt lat="42.848011" lon="1.804936">
        <ele>1296.5</ele>
        <time>2010-02-07T10:26:08Z</time>
      </trkpt>
      <trkpt lat="42.848018" lon="1.804898">
        <ele>1297.0</ele>
        <time>2010-02-07T10:26:11Z</time>
      </trkpt>
      <trkpt lat="42.848031" lon="1.804857">
        <ele>1296.5</ele>
        <time>2010-02-07T10:26:15Z</time>
      </trkpt>
      <trkpt lat="42.848092" lon="1.804797">
        <ele>1299.8</ele>
        <time>2010-02-07T10:26:26Z</time>
      </trkpt>
      <trkpt lat="42.848111" lon="1.804776">
        <ele>1300.3</ele>
        <time>2010-02-07T10:26:30Z</time>
      </trkpt>
      <trkpt lat="42.848151" lon="1.804709">
        <ele>1302.2</ele>
        <time>2010-02-07T10:26:42Z</time>
      </trkpt>
      <trkpt lat="42.848161" lon="1.804693">
        <ele>1301.3</ele>
        <time>2010-02-07T10:26:46Z</time>
      </trkpt>
      <trkpt lat="42.848187" lon="1.804694">
        <ele>1302.7</ele>
        <time>2010-02-07T10:27:01Z</time>
      </trkpt>
      <trkpt lat="42.848187" lon="1.804616">
        <ele>1302.7</ele>
        <time>2010-02-07T10:27:36Z</time>
      </trkpt>
      <trkpt lat="42.848251" lon="1.804542">
        <ele>1306.1</ele>
        <time>2010-02-07T10:27:48Z</time>
      </trkpt>
      <trkpt lat="42.848294" lon="1.804533">
        <ele>1308.5</ele>
        <time>2010-02-07T10:27:59Z</time>
      </trkpt>
      <trkpt lat="42.848294" lon="1.804533">
        <ele>1309.0</ele>
        <time>2010-02-07T10:28:00Z</time>
      </trkpt>
      <trkpt lat="42.848294" lon="1.804533">
        <ele>1296.5</ele>
        <time>2010-02-07T10:28:29Z</time>
      </trkpt>
      <trkpt lat="42.848294" lon="1.804533">
        <ele>1309.0</ele>
        <time>2010-02-07T10:28:30Z</time>
      </trkpt>
      <trkpt lat="42.848300" lon="1.804533">
        <ele>1319.1</ele>
        <time>2010-02-07T10:28:38Z</time>
      </trkpt>
      <trkpt lat="42.848306" lon="1.804531">
        <ele>1310.4</ele>
        <time>2010-02-07T10:28:39Z</time>
      </trkpt>
      <trkpt lat="42.848314" lon="1.804522">
        <ele>1308.5</ele>
        <time>2010-02-07T10:28:41Z</time>
      </trkpt>
      <trkpt lat="42.848320" lon="1.804508">
        <ele>1308.5</ele>
        <time>2010-02-07T10:28:45Z</time>
      </trkpt>
      <trkpt lat="42.848359" lon="1.804375">
        <ele>1309.0</ele>
        <time>2010-02-07T10:28:58Z</time>
      </trkpt>
      <trkpt lat="42.848364" lon="1.804368">
        <ele>1309.9</ele>
        <time>2010-02-07T10:28:59Z</time>
      </trkpt>
      <trkpt lat="42.848376" lon="1.804349">
        <ele>1310.4</ele>
        <time>2010-02-07T10:29:01Z</time>
      </trkpt>
      <trkpt lat="42.848390" lon="1.804316">
        <ele>1312.3</ele>
        <time>2010-02-07T10:29:06Z</time>
      </trkpt>
      <trkpt lat="42.848442" lon="1.804274">
        <ele>1312.3</ele>
        <time>2010-02-07T10:29:12Z</time>
      </trkpt>
      <trkpt lat="42.848467" lon="1.804238">
        <ele>1313.3</ele>
        <time>2010-02-07T10:29:19Z</time>
      </trkpt>
      <trkpt lat="42.848482" lon="1.804197">
        <ele>1315.2</ele>
        <time>2010-02-07T10:29:33Z</time>
      </trkpt>
      <trkpt lat="42.848476" lon="1.804200">
        <ele>1314.3</ele>
        <time>2010-02-07T10:29:47Z</time>
      </trkpt>
      <trkpt lat="42.848496" lon="1.804177">
        <ele>1317.6</ele>
        <time>2010-02-07T10:29:58Z</time>
      </trkpt>
      <trkpt lat="42.848554" lon="1.804000">
        <ele>1320.5</ele>
        <time>2010-02-07T10:30:17Z</time>
      </trkpt>
      <trkpt lat="42.848616" lon="1.803876">
        <ele>1321.9</ele>
        <time>2010-02-07T10:30:29Z</time>
      </trkpt>
      <trkpt lat="42.848643" lon="1.803839">
        <ele>1323.4</ele>
        <time>2010-02-07T10:30:42Z</time>
      </trkpt>
      <trkpt lat="42.848652" lon="1.803827">
        <ele>1323.9</ele>
        <time>2010-02-07T10:30:43Z</time>
      </trkpt>
      <trkpt lat="42.848683" lon="1.803755">
        <ele>1326.3</ele>
        <time>2010-02-07T10:30:52Z</time>
      </trkpt>
      <trkpt lat="42.848745" lon="1.803608">
        <ele>1328.7</ele>
        <time>2010-02-07T10:31:10Z</time>
      </trkpt>
      <trkpt lat="42.848763" lon="1.803552">
        <ele>1330.6</ele>
        <time>2010-02-07T10:31:20Z</time>
      </trkpt>
      <trkpt lat="42.848819" lon="1.803464">
        <ele>1331.6</ele>
        <time>2010-02-07T10:31:30Z</time>
      </trkpt>
      <trkpt lat="42.848848" lon="1.803407">
        <ele>1331.6</ele>
        <time>2010-02-07T10:31:37Z</time>
      </trkpt>
      <trkpt lat="42.848885" lon="1.803357">
        <ele>1333.5</ele>
        <time>2010-02-07T10:31:43Z</time>
      </trkpt>
      <trkpt lat="42.848922" lon="1.803314">
        <ele>1335.4</ele>
        <time>2010-02-07T10:31:56Z</time>
      </trkpt>
      <trkpt lat="42.848947" lon="1.803237">
        <ele>1336.4</ele>
        <time>2010-02-07T10:32:06Z</time>
      </trkpt>
      <trkpt lat="42.848946" lon="1.803145">
        <ele>1337.3</ele>
        <time>2010-02-07T10:32:16Z</time>
      </trkpt>
      <trkpt lat="42.848969" lon="1.803055">
        <ele>1340.2</ele>
        <time>2010-02-07T10:32:28Z</time>
      </trkpt>
      <trkpt lat="42.848983" lon="1.802986">
        <ele>1343.6</ele>
        <time>2010-02-07T10:32:43Z</time>
      </trkpt>
      <trkpt lat="42.848983" lon="1.802986">
        <ele>1343.6</ele>
        <time>2010-02-07T10:32:44Z</time>
      </trkpt>
      <trkpt lat="42.849081" lon="1.802882">
        <ele>1345.5</ele>
        <time>2010-02-07T10:33:01Z</time>
      </trkpt>
      <trkpt lat="42.849097" lon="1.802816">
        <ele>1347.9</ele>
        <time>2010-02-07T10:33:15Z</time>
      </trkpt>
      <trkpt lat="42.849162" lon="1.802704">
        <ele>1349.8</ele>
        <time>2010-02-07T10:33:31Z</time>
      </trkpt>
      <trkpt lat="42.849185" lon="1.802670">
        <ele>1351.8</ele>
        <time>2010-02-07T10:33:41Z</time>
      </trkpt>
      <trkpt lat="42.849157" lon="1.802592">
        <ele>1353.7</ele>
        <time>2010-02-07T10:33:51Z</time>
      </trkpt>
      <trkpt lat="42.849160" lon="1.802480">
        <ele>1355.6</ele>
        <time>2010-02-07T10:34:02Z</time>
      </trkpt>
      <trkpt lat="42.849162" lon="1.802472">
        <ele>1356.6</ele>
        <time>2010-02-07T10:34:04Z</time>
      </trkpt>
      <trkpt lat="42.849217" lon="1.802356">
        <ele>1357.5</ele>
        <time>2010-02-07T10:34:17Z</time>
      </trkpt>
      <trkpt lat="42.849219" lon="1.802333">
        <ele>1358.5</ele>
        <time>2010-02-07T10:34:23Z</time>
      </trkpt>
      <trkpt lat="42.849236" lon="1.802250">
        <ele>1359.0</ele>
        <time>2010-02-07T10:34:37Z</time>
      </trkpt>
      <trkpt lat="42.849260" lon="1.802126">
        <ele>1360.4</ele>
        <time>2010-02-07T10:34:50Z</time>
      </trkpt>
      <trkpt lat="42.849266" lon="1.802104">
        <ele>1361.4</ele>
        <time>2010-02-07T10:35:05Z</time>
      </trkpt>
      <trkpt lat="42.849264" lon="1.802027">
        <ele>1361.8</ele>
        <time>2010-02-07T10:35:20Z</time>
      </trkpt>
      <trkpt lat="42.849269" lon="1.801938">
        <ele>1360.9</ele>
        <time>2010-02-07T10:35:44Z</time>
      </trkpt>
      <trkpt lat="42.849286" lon="1.801900">
        <ele>1360.4</ele>
        <time>2010-02-07T10:35:57Z</time>
      </trkpt>
      <trkpt lat="42.849309" lon="1.801838">
        <ele>1361.8</ele>
        <time>2010-02-07T10:36:10Z</time>
      </trkpt>
      <trkpt lat="42.849302" lon="1.801788">
        <ele>1362.8</ele>
        <time>2010-02-07T10:36:17Z</time>
      </trkpt>
      <trkpt lat="42.849286" lon="1.801783">
        <ele>1363.8</ele>
        <time>2010-02-07T10:36:35Z</time>
      </trkpt>
      <trkpt lat="42.849285" lon="1.801774">
        <ele>1362.8</ele>
        <time>2010-02-07T10:36:54Z</time>
      </trkpt>
      <trkpt lat="42.849286" lon="1.801704">
        <ele>1363.8</ele>
        <time>2010-02-07T10:37:02Z</time>
      </trkpt>
      <trkpt lat="42.849276" lon="1.801653">
        <ele>1364.2</ele>
        <time>2010-02-07T10:37:06Z</time>
      </trkpt>
      <trkpt lat="42.849276" lon="1.801625">
        <ele>1364.2</ele>
        <time>2010-02-07T10:37:08Z</time>
      </trkpt>
      <trkpt lat="42.849261" lon="1.801559">
        <ele>1365.2</ele>
        <time>2010-02-07T10:37:13Z</time>
      </trkpt>
      <trkpt lat="42.849226" lon="1.801417">
        <ele>1365.2</ele>
        <time>2010-02-07T10:37:24Z</time>
      </trkpt>
      <trkpt lat="42.849224" lon="1.801404">
        <ele>1365.2</ele>
        <time>2010-02-07T10:37:25Z</time>
      </trkpt>
      <trkpt lat="42.849262" lon="1.801246">
        <ele>1367.6</ele>
        <time>2010-02-07T10:37:37Z</time>
      </trkpt>
      <trkpt lat="42.849280" lon="1.801140">
        <ele>1369.5</ele>
        <time>2010-02-07T10:37:47Z</time>
      </trkpt>
      <trkpt lat="42.849288" lon="1.801002">
        <ele>1369.1</ele>
        <time>2010-02-07T10:37:58Z</time>
      </trkpt>
      <trkpt lat="42.849301" lon="1.800906">
        <ele>1369.5</ele>
        <time>2010-02-07T10:38:07Z</time>
      </trkpt>
      <trkpt lat="42.849333" lon="1.800793">
        <ele>1371.9</ele>
        <time>2010-02-07T10:38:17Z</time>
      </trkpt>
      <trkpt lat="42.849371" lon="1.800681">
        <ele>1372.9</ele>
        <time>2010-02-07T10:38:27Z</time>
      </trkpt>
      <trkpt lat="42.849396" lon="1.800598">
        <ele>1373.9</ele>
        <time>2010-02-07T10:38:36Z</time>
      </trkpt>
      <trkpt lat="42.849405" lon="1.800568">
        <ele>1375.8</ele>
        <time>2010-02-07T10:38:39Z</time>
      </trkpt>
      <trkpt lat="42.849461" lon="1.800410">
        <ele>1376.3</ele>
        <time>2010-02-07T10:38:51Z</time>
      </trkpt>
      <trkpt lat="42.849475" lon="1.800339">
        <ele>1377.7</ele>
        <time>2010-02-07T10:38:58Z</time>
      </trkpt>
      <trkpt lat="42.849479" lon="1.800297">
        <ele>1377.7</ele>
        <time>2010-02-07T10:39:01Z</time>
      </trkpt>
      <trkpt lat="42.849475" lon="1.800269">
        <ele>1378.2</ele>
        <time>2010-02-07T10:39:03Z</time>
      </trkpt>
      <trkpt lat="42.849499" lon="1.800150">
        <ele>1378.7</ele>
        <time>2010-02-07T10:39:15Z</time>
      </trkpt>
      <trkpt lat="42.849519" lon="1.800029">
        <ele>1379.6</ele>
        <time>2010-02-07T10:39:26Z</time>
      </trkpt>
      <trkpt lat="42.849522" lon="1.800009">
        <ele>1380.6</ele>
        <time>2010-02-07T10:39:28Z</time>
      </trkpt>
      <trkpt lat="42.849516" lon="1.799936">
        <ele>1381.1</ele>
        <time>2010-02-07T10:39:35Z</time>
      </trkpt>
      <trkpt lat="42.849524" lon="1.799812">
        <ele>1382.0</ele>
        <time>2010-02-07T10:39:46Z</time>
      </trkpt>
      <trkpt lat="42.849525" lon="1.799800">
        <ele>1382.5</ele>
        <time>2010-02-07T10:39:47Z</time>
      </trkpt>
      <trkpt lat="42.849536" lon="1.799667">
        <ele>1383.5</ele>
        <time>2010-02-07T10:39:58Z</time>
      </trkpt>
      <trkpt lat="42.849538" lon="1.799572">
        <ele>1384.0</ele>
        <time>2010-02-07T10:40:08Z</time>
      </trkpt>
      <trkpt lat="42.849548" lon="1.799460">
        <ele>1385.4</ele>
        <time>2010-02-07T10:40:18Z</time>
      </trkpt>
      <trkpt lat="42.849562" lon="1.799344">
        <ele>1387.8</ele>
        <time>2010-02-07T10:40:29Z</time>
      </trkpt>
      <trkpt lat="42.849558" lon="1.799302">
        <ele>1388.8</ele>
        <time>2010-02-07T10:40:34Z</time>
      </trkpt>
      <trkpt lat="42.849547" lon="1.799182">
        <ele>1389.7</ele>
        <time>2010-02-07T10:40:46Z</time>
      </trkpt>
      <trkpt lat="42.849544" lon="1.799175">
        <ele>1390.2</ele>
        <time>2010-02-07T10:40:47Z</time>
      </trkpt>
      <trkpt lat="42.849530" lon="1.799085">
        <ele>1391.6</ele>
        <time>2010-02-07T10:40:57Z</time>
      </trkpt>
      <trkpt lat="42.849523" lon="1.798998">
        <ele>1392.1</ele>
        <time>2010-02-07T10:41:07Z</time>
      </trkpt>
      <trkpt lat="42.849494" lon="1.798858">
        <ele>1394.5</ele>
        <time>2010-02-07T10:41:22Z</time>
      </trkpt>
      <trkpt lat="42.849495" lon="1.798753">
        <ele>1394.5</ele>
        <time>2010-02-07T10:41:32Z</time>
      </trkpt>
      <trkpt lat="42.849501" lon="1.798661">
        <ele>1396.5</ele>
        <time>2010-02-07T10:41:41Z</time>
      </trkpt>
      <trkpt lat="42.849492" lon="1.798618">
        <ele>1396.9</ele>
        <time>2010-02-07T10:41:46Z</time>
      </trkpt>
      <trkpt lat="42.849468" lon="1.798546">
        <ele>1398.4</ele>
        <time>2010-02-07T10:41:56Z</time>
      </trkpt>
      <trkpt lat="42.849461" lon="1.798440">
        <ele>1399.3</ele>
        <time>2010-02-07T10:42:07Z</time>
      </trkpt>
      <trkpt lat="42.849453" lon="1.798394">
        <ele>1401.3</ele>
        <time>2010-02-07T10:42:15Z</time>
      </trkpt>
      <trkpt lat="42.849467" lon="1.798290">
        <ele>1402.7</ele>
        <time>2010-02-07T10:42:28Z</time>
      </trkpt>
      <trkpt lat="42.849493" lon="1.798220">
        <ele>1404.6</ele>
        <time>2010-02-07T10:42:38Z</time>
      </trkpt>
      <trkpt lat="42.849523" lon="1.798155">
        <ele>1408.5</ele>
        <time>2010-02-07T10:42:51Z</time>
      </trkpt>
      <trkpt lat="42.849546" lon="1.798100">
        <ele>1408.9</ele>
        <time>2010-02-07T10:43:08Z</time>
      </trkpt>
      <trkpt lat="42.849551" lon="1.798056">
        <ele>1410.4</ele>
        <time>2010-02-07T10:43:50Z</time>
      </trkpt>
      <trkpt lat="42.849543" lon="1.797982">
        <ele>1411.8</ele>
        <time>2010-02-07T10:44:20Z</time>
      </trkpt>
      <trkpt lat="42.849565" lon="1.797907">
        <ele>1415.2</ele>
        <time>2010-02-07T10:44:35Z</time>
      </trkpt>
      <trkpt lat="42.849605" lon="1.797798">
        <ele>1418.6</ele>
        <time>2010-02-07T10:44:46Z</time>
      </trkpt>
      <trkpt lat="42.849630" lon="1.797706">
        <ele>1422.4</ele>
        <time>2010-02-07T10:45:04Z</time>
      </trkpt>
      <trkpt lat="42.849668" lon="1.797613">
        <ele>1424.8</ele>
        <time>2010-02-07T10:45:16Z</time>
      </trkpt>
      <trkpt lat="42.849686" lon="1.797568">
        <ele>1424.3</ele>
        <time>2010-02-07T10:45:36Z</time>
      </trkpt>
      <trkpt lat="42.849709" lon="1.797523">
        <ele>1424.8</ele>
        <time>2010-02-07T10:45:41Z</time>
      </trkpt>
      <trkpt lat="42.849714" lon="1.797500">
        <ele>1425.8</ele>
        <time>2010-02-07T10:45:43Z</time>
      </trkpt>
      <trkpt lat="42.849734" lon="1.797419">
        <ele>1427.2</ele>
        <time>2010-02-07T10:45:53Z</time>
      </trkpt>
      <trkpt lat="42.849760" lon="1.797300">
        <ele>1428.7</ele>
        <time>2010-02-07T10:46:04Z</time>
      </trkpt>
      <trkpt lat="42.849757" lon="1.797224">
        <ele>1429.6</ele>
        <time>2010-02-07T10:46:11Z</time>
      </trkpt>
      <trkpt lat="42.849787" lon="1.797130">
        <ele>1431.5</ele>
        <time>2010-02-07T10:46:21Z</time>
      </trkpt>
      <trkpt lat="42.849806" lon="1.797020">
        <ele>1431.5</ele>
        <time>2010-02-07T10:46:32Z</time>
      </trkpt>
      <trkpt lat="42.849818" lon="1.796939">
        <ele>1433.0</ele>
        <time>2010-02-07T10:46:43Z</time>
      </trkpt>
      <trkpt lat="42.849830" lon="1.796874">
        <ele>1433.9</ele>
        <time>2010-02-07T10:47:01Z</time>
      </trkpt>
      <trkpt lat="42.849833" lon="1.796851">
        <ele>1434.4</ele>
        <time>2010-02-07T10:47:30Z</time>
      </trkpt>
      <trkpt lat="42.849843" lon="1.796818">
        <ele>1434.4</ele>
        <time>2010-02-07T10:48:11Z</time>
      </trkpt>
      <trkpt lat="42.849848" lon="1.796745">
        <ele>1435.9</ele>
        <time>2010-02-07T10:49:08Z</time>
      </trkpt>
      <trkpt lat="42.849864" lon="1.796599">
        <ele>1437.3</ele>
        <time>2010-02-07T10:49:20Z</time>
      </trkpt>
      <trkpt lat="42.849892" lon="1.796508">
        <ele>1438.3</ele>
        <time>2010-02-07T10:49:29Z</time>
      </trkpt>
      <trkpt lat="42.849904" lon="1.796429">
        <ele>1440.2</ele>
        <time>2010-02-07T10:49:37Z</time>
      </trkpt>
      <trkpt lat="42.849917" lon="1.796357">
        <ele>1439.2</ele>
        <time>2010-02-07T10:49:44Z</time>
      </trkpt>
      <trkpt lat="42.849922" lon="1.796251">
        <ele>1441.6</ele>
        <time>2010-02-07T10:49:54Z</time>
      </trkpt>
      <trkpt lat="42.849950" lon="1.796140">
        <ele>1442.6</ele>
        <time>2010-02-07T10:50:05Z</time>
      </trkpt>
      <trkpt lat="42.849977" lon="1.796061">
        <ele>1445.5</ele>
        <time>2010-02-07T10:50:14Z</time>
      </trkpt>
      <trkpt lat="42.849978" lon="1.796021">
        <ele>1445.0</ele>
        <time>2010-02-07T10:50:17Z</time>
      </trkpt>
      <trkpt lat="42.849997" lon="1.795936">
        <ele>1446.9</ele>
        <time>2010-02-07T10:50:27Z</time>
      </trkpt>
      <trkpt lat="42.850019" lon="1.795874">
        <ele>1447.9</ele>
        <time>2010-02-07T10:50:33Z</time>
      </trkpt>
      <trkpt lat="42.850068" lon="1.795754">
        <ele>1449.8</ele>
        <time>2010-02-07T10:50:45Z</time>
      </trkpt>
      <trkpt lat="42.850069" lon="1.795745">
        <ele>1450.3</ele>
        <time>2010-02-07T10:50:46Z</time>
      </trkpt>
      <trkpt lat="42.850084" lon="1.795646">
        <ele>1450.3</ele>
        <time>2010-02-07T10:50:56Z</time>
      </trkpt>
      <trkpt lat="42.850086" lon="1.795609">
        <ele>1452.2</ele>
        <time>2010-02-07T10:51:01Z</time>
      </trkpt>
      <trkpt lat="42.850098" lon="1.795523">
        <ele>1453.7</ele>
        <time>2010-02-07T10:51:11Z</time>
      </trkpt>
      <trkpt lat="42.850096" lon="1.795485">
        <ele>1453.7</ele>
        <time>2010-02-07T10:51:16Z</time>
      </trkpt>
      <trkpt lat="42.850107" lon="1.795398">
        <ele>1455.1</ele>
        <time>2010-02-07T10:51:27Z</time>
      </trkpt>
      <trkpt lat="42.850123" lon="1.795316">
        <ele>1457.5</ele>
        <time>2010-02-07T10:51:38Z</time>
      </trkpt>
      <trkpt lat="42.850121" lon="1.795303">
        <ele>1457.5</ele>
        <time>2010-02-07T10:51:39Z</time>
      </trkpt>
      <trkpt lat="42.850131" lon="1.795185">
        <ele>1459.4</ele>
        <time>2010-02-07T10:51:52Z</time>
      </trkpt>
      <trkpt lat="42.850118" lon="1.795149">
        <ele>1460.9</ele>
        <time>2010-02-07T10:51:57Z</time>
      </trkpt>
      <trkpt lat="42.850112" lon="1.795088">
        <ele>1461.8</ele>
        <time>2010-02-07T10:52:08Z</time>
      </trkpt>
      <trkpt lat="42.850055" lon="1.795010">
        <ele>1462.3</ele>
        <time>2010-02-07T10:52:20Z</time>
      </trkpt>
      <trkpt lat="42.850022" lon="1.794957">
        <ele>1465.7</ele>
        <time>2010-02-07T10:52:33Z</time>
      </trkpt>
      <trkpt lat="42.849953" lon="1.794853">
        <ele>1465.7</ele>
        <time>2010-02-07T10:52:51Z</time>
      </trkpt>
      <trkpt lat="42.849942" lon="1.794774">
        <ele>1466.6</ele>
        <time>2010-02-07T10:53:01Z</time>
      </trkpt>
      <trkpt lat="42.849929" lon="1.794726">
        <ele>1467.1</ele>
        <time>2010-02-07T10:53:14Z</time>
      </trkpt>
      <trkpt lat="42.849900" lon="1.794601">
        <ele>1468.1</ele>
        <time>2010-02-07T10:53:24Z</time>
      </trkpt>
      <trkpt lat="42.849882" lon="1.794550">
        <ele>1469.0</ele>
        <time>2010-02-07T10:53:29Z</time>
      </trkpt>
      <trkpt lat="42.849896" lon="1.794503">
        <ele>1469.0</ele>
        <time>2010-02-07T10:53:44Z</time>
      </trkpt>
      <trkpt lat="42.849884" lon="1.794424">
        <ele>1468.6</ele>
        <time>2010-02-07T10:54:11Z</time>
      </trkpt>
      <trkpt lat="42.849858" lon="1.794268">
        <ele>1470.0</ele>
        <time>2010-02-07T10:54:22Z</time>
      </trkpt>
      <trkpt lat="42.849843" lon="1.794218">
        <ele>1469.5</ele>
        <time>2010-02-07T10:54:27Z</time>
      </trkpt>
      <trkpt lat="42.849795" lon="1.794089">
        <ele>1471.0</ele>
        <time>2010-02-07T10:54:37Z</time>
      </trkpt>
      <trkpt lat="42.849747" lon="1.793983">
        <ele>1470.5</ele>
        <time>2010-02-07T10:54:47Z</time>
      </trkpt>
      <trkpt lat="42.849690" lon="1.793908">
        <ele>1470.0</ele>
        <time>2010-02-07T10:54:57Z</time>
      </trkpt>
      <trkpt lat="42.849654" lon="1.793798">
        <ele>1471.0</ele>
        <time>2010-02-07T10:55:07Z</time>
      </trkpt>
      <trkpt lat="42.849633" lon="1.793708">
        <ele>1471.9</ele>
        <time>2010-02-07T10:55:18Z</time>
      </trkpt>
      <trkpt lat="42.849621" lon="1.793648">
        <ele>1472.9</ele>
        <time>2010-02-07T10:55:23Z</time>
      </trkpt>
      <trkpt lat="42.849603" lon="1.793495">
        <ele>1472.9</ele>
        <time>2010-02-07T10:55:33Z</time>
      </trkpt>
      <trkpt lat="42.849587" lon="1.793372">
        <ele>1474.8</ele>
        <time>2010-02-07T10:55:43Z</time>
      </trkpt>
      <trkpt lat="42.849577" lon="1.793330">
        <ele>1476.7</ele>
        <time>2010-02-07T10:55:50Z</time>
      </trkpt>
      <trkpt lat="42.849590" lon="1.793211">
        <ele>1477.7</ele>
        <time>2010-02-07T10:56:00Z</time>
      </trkpt>
      <trkpt lat="42.849587" lon="1.793090">
        <ele>1479.1</ele>
        <time>2010-02-07T10:56:11Z</time>
      </trkpt>
      <trkpt lat="42.849573" lon="1.793048">
        <ele>1481.5</ele>
        <time>2010-02-07T10:56:23Z</time>
      </trkpt>
      <trkpt lat="42.849578" lon="1.792974">
        <ele>1483.9</ele>
        <time>2010-02-07T10:56:33Z</time>
      </trkpt>
      <trkpt lat="42.849592" lon="1.792833">
        <ele>1485.4</ele>
        <time>2010-02-07T10:56:44Z</time>
      </trkpt>
      <trkpt lat="42.849606" lon="1.792758">
        <ele>1487.3</ele>
        <time>2010-02-07T10:56:59Z</time>
      </trkpt>
      <trkpt lat="42.849606" lon="1.792747">
        <ele>1487.8</ele>
        <time>2010-02-07T10:57:00Z</time>
      </trkpt>
      <trkpt lat="42.849607" lon="1.792646">
        <ele>1489.7</ele>
        <time>2010-02-07T10:57:17Z</time>
      </trkpt>
      <trkpt lat="42.849675" lon="1.792582">
        <ele>1492.1</ele>
        <time>2010-02-07T10:57:30Z</time>
      </trkpt>
      <trkpt lat="42.849725" lon="1.792490">
        <ele>1492.1</ele>
        <time>2010-02-07T10:58:00Z</time>
      </trkpt>
      <trkpt lat="42.849757" lon="1.792397">
        <ele>1494.5</ele>
        <time>2010-02-07T10:58:11Z</time>
      </trkpt>
      <trkpt lat="42.849772" lon="1.792366">
        <ele>1495.9</ele>
        <time>2010-02-07T10:58:16Z</time>
      </trkpt>
      <trkpt lat="42.849773" lon="1.792245">
        <ele>1496.4</ele>
        <time>2010-02-07T10:58:27Z</time>
      </trkpt>
      <trkpt lat="42.849759" lon="1.792133">
        <ele>1499.3</ele>
        <time>2010-02-07T10:58:39Z</time>
      </trkpt>
      <trkpt lat="42.849753" lon="1.792052">
        <ele>1501.2</ele>
        <time>2010-02-07T10:58:53Z</time>
      </trkpt>
      <trkpt lat="42.849752" lon="1.792015">
        <ele>1503.2</ele>
        <time>2010-02-07T10:59:06Z</time>
      </trkpt>
      <trkpt lat="42.849780" lon="1.791911">
        <ele>1506.0</ele>
        <time>2010-02-07T10:59:19Z</time>
      </trkpt>
      <trkpt lat="42.849772" lon="1.791858">
        <ele>1508.9</ele>
        <time>2010-02-07T10:59:35Z</time>
      </trkpt>
      <trkpt lat="42.849771" lon="1.791791">
        <ele>1511.3</ele>
        <time>2010-02-07T10:59:53Z</time>
      </trkpt>
      <trkpt lat="42.849774" lon="1.791666">
        <ele>1514.7</ele>
        <time>2010-02-07T11:00:07Z</time>
      </trkpt>
      <trkpt lat="42.849806" lon="1.791566">
        <ele>1515.2</ele>
        <time>2010-02-07T11:00:19Z</time>
      </trkpt>
      <trkpt lat="42.849823" lon="1.791473">
        <ele>1519.0</ele>
        <time>2010-02-07T11:00:32Z</time>
      </trkpt>
      <trkpt lat="42.849887" lon="1.791330">
        <ele>1520.5</ele>
        <time>2010-02-07T11:00:44Z</time>
      </trkpt>
      <trkpt lat="42.849910" lon="1.791259">
        <ele>1520.9</ele>
        <time>2010-02-07T11:00:55Z</time>
      </trkpt>
      <trkpt lat="42.849936" lon="1.791224">
        <ele>1523.3</ele>
        <time>2010-02-07T11:01:06Z</time>
      </trkpt>
      <trkpt lat="42.849984" lon="1.791153">
        <ele>1524.8</ele>
        <time>2010-02-07T11:01:19Z</time>
      </trkpt>
      <trkpt lat="42.850003" lon="1.791050">
        <ele>1528.2</ele>
        <time>2010-02-07T11:01:38Z</time>
      </trkpt>
      <trkpt lat="42.850017" lon="1.790951">
        <ele>1529.6</ele>
        <time>2010-02-07T11:01:51Z</time>
      </trkpt>
      <trkpt lat="42.850037" lon="1.790828">
        <ele>1532.5</ele>
        <time>2010-02-07T11:02:06Z</time>
      </trkpt>
      <trkpt lat="42.850093" lon="1.790732">
        <ele>1534.9</ele>
        <time>2010-02-07T11:02:24Z</time>
      </trkpt>
      <trkpt lat="42.850112" lon="1.790623">
        <ele>1537.3</ele>
        <time>2010-02-07T11:02:40Z</time>
      </trkpt>
      <trkpt lat="42.850116" lon="1.790589">
        <ele>1540.2</ele>
        <time>2010-02-07T11:03:02Z</time>
      </trkpt>
      <trkpt lat="42.850155" lon="1.790517">
        <ele>1542.1</ele>
        <time>2010-02-07T11:03:16Z</time>
      </trkpt>
      <trkpt lat="42.850206" lon="1.790405">
        <ele>1544.5</ele>
        <time>2010-02-07T11:03:28Z</time>
      </trkpt>
      <trkpt lat="42.850228" lon="1.790325">
        <ele>1546.4</ele>
        <time>2010-02-07T11:03:40Z</time>
      </trkpt>
      <trkpt lat="42.850253" lon="1.790121">
        <ele>1548.3</ele>
        <time>2010-02-07T11:03:55Z</time>
      </trkpt>
      <trkpt lat="42.850257" lon="1.790059">
        <ele>1548.8</ele>
        <time>2010-02-07T11:04:02Z</time>
      </trkpt>
      <trkpt lat="42.850237" lon="1.789941">
        <ele>1551.7</ele>
        <time>2010-02-07T11:04:21Z</time>
      </trkpt>
      <trkpt lat="42.850244" lon="1.789897">
        <ele>1553.1</ele>
        <time>2010-02-07T11:04:31Z</time>
      </trkpt>
      <trkpt lat="42.850269" lon="1.789744">
        <ele>1555.6</ele>
        <time>2010-02-07T11:04:52Z</time>
      </trkpt>
      <trkpt lat="42.850301" lon="1.789650">
        <ele>1557.5</ele>
        <time>2010-02-07T11:05:03Z</time>
      </trkpt>
      <trkpt lat="42.850315" lon="1.789592">
        <ele>1558.9</ele>
        <time>2010-02-07T11:05:11Z</time>
      </trkpt>
      <trkpt lat="42.850360" lon="1.789499">
        <ele>1560.8</ele>
        <time>2010-02-07T11:05:24Z</time>
      </trkpt>
      <trkpt lat="42.850367" lon="1.789392">
        <ele>1562.3</ele>
        <time>2010-02-07T11:05:35Z</time>
      </trkpt>
      <trkpt lat="42.850381" lon="1.789339">
        <ele>1564.2</ele>
        <time>2010-02-07T11:05:48Z</time>
      </trkpt>
      <trkpt lat="42.850394" lon="1.789276">
        <ele>1565.6</ele>
        <time>2010-02-07T11:06:00Z</time>
      </trkpt>
      <trkpt lat="42.850408" lon="1.789186">
        <ele>1566.1</ele>
        <time>2010-02-07T11:06:11Z</time>
      </trkpt>
      <trkpt lat="42.850457" lon="1.789128">
        <ele>1568.0</ele>
        <time>2010-02-07T11:06:23Z</time>
      </trkpt>
      <trkpt lat="42.850469" lon="1.789042">
        <ele>1570.5</ele>
        <time>2010-02-07T11:06:37Z</time>
      </trkpt>
      <trkpt lat="42.850487" lon="1.788966">
        <ele>1572.9</ele>
        <time>2010-02-07T11:06:51Z</time>
      </trkpt>
      <trkpt lat="42.850546" lon="1.788851">
        <ele>1574.8</ele>
        <time>2010-02-07T11:07:03Z</time>
      </trkpt>
      <trkpt lat="42.850590" lon="1.788775">
        <ele>1575.3</ele>
        <time>2010-02-07T11:07:13Z</time>
      </trkpt>
      <trkpt lat="42.850597" lon="1.788750">
        <ele>1577.7</ele>
        <time>2010-02-07T11:07:27Z</time>
      </trkpt>
      <trkpt lat="42.850599" lon="1.788736">
        <ele>1578.1</ele>
        <time>2010-02-07T11:07:31Z</time>
      </trkpt>
      <trkpt lat="42.850631" lon="1.788644">
        <ele>1580.1</ele>
        <time>2010-02-07T11:07:46Z</time>
      </trkpt>
      <trkpt lat="42.850646" lon="1.788611">
        <ele>1581.5</ele>
        <time>2010-02-07T11:07:50Z</time>
      </trkpt>
      <trkpt lat="42.850678" lon="1.788562">
        <ele>1583.4</ele>
        <time>2010-02-07T11:08:01Z</time>
      </trkpt>
      <trkpt lat="42.850661" lon="1.788526">
        <ele>1583.9</ele>
        <time>2010-02-07T11:08:12Z</time>
      </trkpt>
      <trkpt lat="42.850667" lon="1.788471">
        <ele>1583.9</ele>
        <time>2010-02-07T11:08:53Z</time>
      </trkpt>
      <trkpt lat="42.850640" lon="1.788382">
        <ele>1585.8</ele>
        <time>2010-02-07T11:09:05Z</time>
      </trkpt>
      <trkpt lat="42.850611" lon="1.788316">
        <ele>1589.2</ele>
        <time>2010-02-07T11:09:18Z</time>
      </trkpt>
      <trkpt lat="42.850575" lon="1.788237">
        <ele>1591.6</ele>
        <time>2010-02-07T11:09:29Z</time>
      </trkpt>
      <trkpt lat="42.850564" lon="1.788179">
        <ele>1591.6</ele>
        <time>2010-02-07T11:09:36Z</time>
      </trkpt>
      <trkpt lat="42.850558" lon="1.788158">
        <ele>1593.0</ele>
        <time>2010-02-07T11:09:38Z</time>
      </trkpt>
      <trkpt lat="42.850561" lon="1.788145">
        <ele>1593.0</ele>
        <time>2010-02-07T11:09:40Z</time>
      </trkpt>
      <trkpt lat="42.850537" lon="1.788059">
        <ele>1595.9</ele>
        <time>2010-02-07T11:09:52Z</time>
      </trkpt>
      <trkpt lat="42.850529" lon="1.788036">
        <ele>1596.4</ele>
        <time>2010-02-07T11:09:56Z</time>
      </trkpt>
      <trkpt lat="42.850507" lon="1.787951">
        <ele>1598.8</ele>
        <time>2010-02-07T11:10:06Z</time>
      </trkpt>
      <trkpt lat="42.850488" lon="1.787905">
        <ele>1599.3</ele>
        <time>2010-02-07T11:10:16Z</time>
      </trkpt>
      <trkpt lat="42.850464" lon="1.787870">
        <ele>1601.7</ele>
        <time>2010-02-07T11:10:25Z</time>
      </trkpt>
      <trkpt lat="42.850430" lon="1.787827">
        <ele>1601.7</ele>
        <time>2010-02-07T11:10:41Z</time>
      </trkpt>
      <trkpt lat="42.850434" lon="1.787834">
        <ele>1600.3</ele>
        <time>2010-02-07T11:11:53Z</time>
      </trkpt>
      <trkpt lat="42.850437" lon="1.787840">
        <ele>1601.7</ele>
        <time>2010-02-07T11:13:23Z</time>
      </trkpt>
      <trkpt lat="42.850438" lon="1.787846">
        <ele>1602.2</ele>
        <time>2010-02-07T11:14:21Z</time>
      </trkpt>
      <trkpt lat="42.850430" lon="1.787844">
        <ele>1603.6</ele>
        <time>2010-02-07T11:14:28Z</time>
      </trkpt>
      <trkpt lat="42.850430" lon="1.787844">
        <ele>1600.7</ele>
        <time>2010-02-07T11:14:48Z</time>
      </trkpt>
      <trkpt lat="42.850418" lon="1.787820">
        <ele>1604.1</ele>
        <time>2010-02-07T11:15:02Z</time>
      </trkpt>
      <trkpt lat="42.850412" lon="1.787805">
        <ele>1603.6</ele>
        <time>2010-02-07T11:15:04Z</time>
      </trkpt>
      <trkpt lat="42.850384" lon="1.787774">
        <ele>1602.7</ele>
        <time>2010-02-07T11:15:20Z</time>
      </trkpt>
      <trkpt lat="42.850379" lon="1.787768">
        <ele>1604.1</ele>
        <time>2010-02-07T11:15:41Z</time>
      </trkpt>
      <trkpt lat="42.850379" lon="1.787761">
        <ele>1603.1</ele>
        <time>2010-02-07T11:15:59Z</time>
      </trkpt>
      <trkpt lat="42.850382" lon="1.787743">
        <ele>1603.1</ele>
        <time>2010-02-07T11:16:19Z</time>
      </trkpt>
      <trkpt lat="42.850384" lon="1.787744">
        <ele>1603.1</ele>
        <time>2010-02-07T11:17:15Z</time>
      </trkpt>
      <trkpt lat="42.850382" lon="1.787752">
        <ele>1603.6</ele>
        <time>2010-02-07T11:18:55Z</time>
      </trkpt>
      <trkpt lat="42.850378" lon="1.787752">
        <ele>1605.1</ele>
        <time>2010-02-07T11:19:46Z</time>
      </trkpt>
      <trkpt lat="42.850378" lon="1.787752">
        <ele>1603.6</ele>
        <time>2010-02-07T11:19:48Z</time>
      </trkpt>
      <trkpt lat="42.850377" lon="1.787751">
        <ele>1604.1</ele>
        <time>2010-02-07T11:22:20Z</time>
      </trkpt>
      <trkpt lat="42.850366" lon="1.787740">
        <ele>1603.6</ele>
        <time>2010-02-07T11:22:34Z</time>
      </trkpt>
      <trkpt lat="42.850258" lon="1.787669">
        <ele>1604.1</ele>
        <time>2010-02-07T11:22:45Z</time>
      </trkpt>
      <trkpt lat="42.850157" lon="1.787610">
        <ele>1603.6</ele>
        <time>2010-02-07T11:22:57Z</time>
      </trkpt>
      <trkpt lat="42.850109" lon="1.787599">
        <ele>1604.1</ele>
        <time>2010-02-07T11:23:08Z</time>
      </trkpt>
      <trkpt lat="42.850107" lon="1.787593">
        <ele>1604.6</ele>
        <time>2010-02-07T11:23:21Z</time>
      </trkpt>
      <trkpt lat="42.850107" lon="1.787593">
        <ele>1605.1</ele>
        <time>2010-02-07T11:23:29Z</time>
      </trkpt>
      <trkpt lat="42.850098" lon="1.787540">
        <ele>1603.1</ele>
        <time>2010-02-07T11:23:34Z</time>
      </trkpt>
      <trkpt lat="42.850091" lon="1.787510">
        <ele>1604.1</ele>
        <time>2010-02-07T11:23:36Z</time>
      </trkpt>
      <trkpt lat="42.850086" lon="1.787469">
        <ele>1605.1</ele>
        <time>2010-02-07T11:23:39Z</time>
      </trkpt>
      <trkpt lat="42.850058" lon="1.787304">
        <ele>1605.1</ele>
        <time>2010-02-07T11:23:52Z</time>
      </trkpt>
      <trkpt lat="42.850060" lon="1.787269">
        <ele>1605.5</ele>
        <time>2010-02-07T11:23:55Z</time>
      </trkpt>
      <trkpt lat="42.850053" lon="1.787137">
        <ele>1605.5</ele>
        <time>2010-02-07T11:24:04Z</time>
      </trkpt>
      <trkpt lat="42.850058" lon="1.787061">
        <ele>1604.6</ele>
        <time>2010-02-07T11:24:09Z</time>
      </trkpt>
      <trkpt lat="42.850054" lon="1.786985">
        <ele>1604.6</ele>
        <time>2010-02-07T11:24:15Z</time>
      </trkpt>
      <trkpt lat="42.850060" lon="1.786839">
        <ele>1605.5</ele>
        <time>2010-02-07T11:24:25Z</time>
      </trkpt>
      <trkpt lat="42.850069" lon="1.786709">
        <ele>1604.6</ele>
        <time>2010-02-07T11:24:36Z</time>
      </trkpt>
      <trkpt lat="42.850068" lon="1.786566">
        <ele>1604.6</ele>
        <time>2010-02-07T11:24:48Z</time>
      </trkpt>
      <trkpt lat="42.850087" lon="1.786438">
        <ele>1604.6</ele>
        <time>2010-02-07T11:24:59Z</time>
      </trkpt>
      <trkpt lat="42.850086" lon="1.786312">
        <ele>1604.1</ele>
        <time>2010-02-07T11:25:09Z</time>
      </trkpt>
      <trkpt lat="42.850093" lon="1.786304">
        <ele>1603.6</ele>
        <time>2010-02-07T11:25:25Z</time>
      </trkpt>
      <trkpt lat="42.850082" lon="1.786244">
        <ele>1605.5</ele>
        <time>2010-02-07T11:25:42Z</time>
      </trkpt>
      <trkpt lat="42.850097" lon="1.786180">
        <ele>1606.0</ele>
        <time>2010-02-07T11:25:53Z</time>
      </trkpt>
      <trkpt lat="42.850108" lon="1.786088">
        <ele>1606.0</ele>
        <time>2010-02-07T11:26:00Z</time>
      </trkpt>
      <trkpt lat="42.850120" lon="1.786022">
        <ele>1605.1</ele>
        <time>2010-02-07T11:26:11Z</time>
      </trkpt>
      <trkpt lat="42.850157" lon="1.785923">
        <ele>1607.5</ele>
        <time>2010-02-07T11:26:22Z</time>
      </trkpt>
      <trkpt lat="42.850178" lon="1.785824">
        <ele>1608.4</ele>
        <time>2010-02-07T11:26:33Z</time>
      </trkpt>
      <trkpt lat="42.850187" lon="1.785775">
        <ele>1609.9</ele>
        <time>2010-02-07T11:26:46Z</time>
      </trkpt>
      <trkpt lat="42.850187" lon="1.785775">
        <ele>1611.8</ele>
        <time>2010-02-07T11:26:50Z</time>
      </trkpt>
      <trkpt lat="42.850213" lon="1.785728">
        <ele>1612.7</ele>
        <time>2010-02-07T11:27:02Z</time>
      </trkpt>
      <trkpt lat="42.850236" lon="1.785717">
        <ele>1612.3</ele>
        <time>2010-02-07T11:27:07Z</time>
      </trkpt>
      <trkpt lat="42.850268" lon="1.785667">
        <ele>1613.7</ele>
        <time>2010-02-07T11:27:16Z</time>
      </trkpt>
      <trkpt lat="42.850276" lon="1.785662">
        <ele>1613.2</ele>
        <time>2010-02-07T11:27:17Z</time>
      </trkpt>
      <trkpt lat="42.850289" lon="1.785644">
        <ele>1611.3</ele>
        <time>2010-02-07T11:27:19Z</time>
      </trkpt>
      <trkpt lat="42.850295" lon="1.785628">
        <ele>1613.2</ele>
        <time>2010-02-07T11:27:21Z</time>
      </trkpt>
      <trkpt lat="42.850304" lon="1.785613">
        <ele>1613.7</ele>
        <time>2010-02-07T11:27:37Z</time>
      </trkpt>
      <trkpt lat="42.850343" lon="1.785547">
        <ele>1615.6</ele>
        <time>2010-02-07T11:27:47Z</time>
      </trkpt>
      <trkpt lat="42.850358" lon="1.785533">
        <ele>1614.7</ele>
        <time>2010-02-07T11:27:49Z</time>
      </trkpt>
      <trkpt lat="42.850414" lon="1.785456">
        <ele>1617.6</ele>
        <time>2010-02-07T11:28:01Z</time>
      </trkpt>
      <trkpt lat="42.850468" lon="1.785434">
        <ele>1619.0</ele>
        <time>2010-02-07T11:28:09Z</time>
      </trkpt>
      <trkpt lat="42.850503" lon="1.785445">
        <ele>1621.9</ele>
        <time>2010-02-07T11:28:20Z</time>
      </trkpt>
      <trkpt lat="42.850518" lon="1.785442">
        <ele>1623.8</ele>
        <time>2010-02-07T11:28:32Z</time>
      </trkpt>
      <trkpt lat="42.850518" lon="1.785442">
        <ele>1621.9</ele>
        <time>2010-02-07T11:28:35Z</time>
      </trkpt>
      <trkpt lat="42.850550" lon="1.785428">
        <ele>1623.3</ele>
        <time>2010-02-07T11:29:23Z</time>
      </trkpt>
      <trkpt lat="42.850550" lon="1.785428">
        <ele>1621.9</ele>
        <time>2010-02-07T11:29:29Z</time>
      </trkpt>
      <trkpt lat="42.850550" lon="1.785428">
        <ele>1623.3</ele>
        <time>2010-02-07T11:29:32Z</time>
      </trkpt>
      <trkpt lat="42.850558" lon="1.785421">
        <ele>1626.2</ele>
        <time>2010-02-07T11:29:41Z</time>
      </trkpt>
      <trkpt lat="42.850577" lon="1.785476">
        <ele>1626.2</ele>
        <time>2010-02-07T11:29:55Z</time>
      </trkpt>
      <trkpt lat="42.850598" lon="1.785473">
        <ele>1628.1</ele>
        <time>2010-02-07T11:30:12Z</time>
      </trkpt>
      <trkpt lat="42.850608" lon="1.785458">
        <ele>1626.7</ele>
        <time>2010-02-07T11:30:16Z</time>
      </trkpt>
      <trkpt lat="42.850607" lon="1.785454">
        <ele>1630.1</ele>
        <time>2010-02-07T11:30:19Z</time>
      </trkpt>
      <trkpt lat="42.850613" lon="1.785447">
        <ele>1629.6</ele>
        <time>2010-02-07T11:30:35Z</time>
      </trkpt>
      <trkpt lat="42.850634" lon="1.785452">
        <ele>1630.1</ele>
        <time>2010-02-07T11:30:55Z</time>
      </trkpt>
      <trkpt lat="42.850644" lon="1.785442">
        <ele>1629.6</ele>
        <time>2010-02-07T11:31:02Z</time>
      </trkpt>
      <trkpt lat="42.850688" lon="1.785410">
        <ele>1632.9</ele>
        <time>2010-02-07T11:31:09Z</time>
      </trkpt>
      <trkpt lat="42.850706" lon="1.785350">
        <ele>1633.4</ele>
        <time>2010-02-07T11:31:18Z</time>
      </trkpt>
      <trkpt lat="42.850711" lon="1.785311">
        <ele>1634.9</ele>
        <time>2010-02-07T11:31:24Z</time>
      </trkpt>
      <trkpt lat="42.850718" lon="1.785236">
        <ele>1634.9</ele>
        <time>2010-02-07T11:31:37Z</time>
      </trkpt>
      <trkpt lat="42.850719" lon="1.785231">
        <ele>1634.9</ele>
        <time>2010-02-07T11:31:38Z</time>
      </trkpt>
      <trkpt lat="42.850733" lon="1.785184">
        <ele>1632.9</ele>
        <time>2010-02-07T11:31:51Z</time>
      </trkpt>
      <trkpt lat="42.850747" lon="1.785149">
        <ele>1632.0</ele>
        <time>2010-02-07T11:31:56Z</time>
      </trkpt>
      <trkpt lat="42.850786" lon="1.785108">
        <ele>1631.5</ele>
        <time>2010-02-07T11:32:02Z</time>
      </trkpt>
      <trkpt lat="42.850842" lon="1.785066">
        <ele>1633.9</ele>
        <time>2010-02-07T11:32:13Z</time>
      </trkpt>
      <trkpt lat="42.850842" lon="1.785040">
        <ele>1634.9</ele>
        <time>2010-02-07T11:32:16Z</time>
      </trkpt>
      <trkpt lat="42.850868" lon="1.784950">
        <ele>1635.3</ele>
        <time>2010-02-07T11:32:27Z</time>
      </trkpt>
      <trkpt lat="42.850901" lon="1.784880">
        <ele>1636.3</ele>
        <time>2010-02-07T11:32:38Z</time>
      </trkpt>
      <trkpt lat="42.850904" lon="1.784869">
        <ele>1637.3</ele>
        <time>2010-02-07T11:32:45Z</time>
      </trkpt>
      <trkpt lat="42.850930" lon="1.784816">
        <ele>1636.3</ele>
        <time>2010-02-07T11:32:52Z</time>
      </trkpt>
      <trkpt lat="42.850945" lon="1.784709">
        <ele>1637.7</ele>
        <time>2010-02-07T11:33:05Z</time>
      </trkpt>
      <trkpt lat="42.850969" lon="1.784595">
        <ele>1639.7</ele>
        <time>2010-02-07T11:33:18Z</time>
      </trkpt>
      <trkpt lat="42.850949" lon="1.784592">
        <ele>1641.1</ele>
        <time>2010-02-07T11:33:30Z</time>
      </trkpt>
      <trkpt lat="42.850925" lon="1.784529">
        <ele>1642.5</ele>
        <time>2010-02-07T11:33:41Z</time>
      </trkpt>
      <trkpt lat="42.850822" lon="1.784267">
        <ele>1649.8</ele>
        <time>2010-02-07T11:34:56Z</time>
      </trkpt>
      <trkpt lat="42.850825" lon="1.784214">
        <ele>1652.2</ele>
        <time>2010-02-07T11:35:02Z</time>
      </trkpt>
      <trkpt lat="42.850814" lon="1.784195">
        <ele>1650.7</ele>
        <time>2010-02-07T11:35:06Z</time>
      </trkpt>
      <trkpt lat="42.850814" lon="1.784195">
        <ele>1650.7</ele>
        <time>2010-02-07T11:35:18Z</time>
      </trkpt>
      <trkpt lat="42.850814" lon="1.784195">
        <ele>1650.2</ele>
        <time>2010-02-07T11:35:31Z</time>
      </trkpt>
      <trkpt lat="42.850787" lon="1.784141">
        <ele>1652.2</ele>
        <time>2010-02-07T11:35:44Z</time>
      </trkpt>
      <trkpt lat="42.850755" lon="1.784094">
        <ele>1651.2</ele>
        <time>2010-02-07T11:35:57Z</time>
      </trkpt>
      <trkpt lat="42.850749" lon="1.784056">
        <ele>1649.3</ele>
        <time>2010-02-07T11:36:14Z</time>
      </trkpt>
      <trkpt lat="42.850706" lon="1.783895">
        <ele>1647.4</ele>
        <time>2010-02-07T11:36:33Z</time>
      </trkpt>
      <trkpt lat="42.850659" lon="1.783767">
        <ele>1649.8</ele>
        <time>2010-02-07T11:36:43Z</time>
      </trkpt>
      <trkpt lat="42.850652" lon="1.783742">
        <ele>1650.7</ele>
        <time>2010-02-07T11:36:45Z</time>
      </trkpt>
      <trkpt lat="42.850614" lon="1.783589">
        <ele>1649.8</ele>
        <time>2010-02-07T11:36:56Z</time>
      </trkpt>
      <trkpt lat="42.850612" lon="1.783453">
        <ele>1652.2</ele>
        <time>2010-02-07T11:37:08Z</time>
      </trkpt>
      <trkpt lat="42.850613" lon="1.783443">
        <ele>1652.6</ele>
        <time>2010-02-07T11:37:09Z</time>
      </trkpt>
      <trkpt lat="42.850484" lon="1.783208">
        <ele>1659.4</ele>
        <time>2010-02-07T11:38:19Z</time>
      </trkpt>
      <trkpt lat="42.850424" lon="1.783223">
        <ele>1660.8</ele>
        <time>2010-02-07T11:38:31Z</time>
      </trkpt>
      <trkpt lat="42.850411" lon="1.783223">
        <ele>1660.8</ele>
        <time>2010-02-07T11:38:35Z</time>
      </trkpt>
      <trkpt lat="42.850391" lon="1.783232">
        <ele>1662.3</ele>
        <time>2010-02-07T11:38:38Z</time>
      </trkpt>
      <trkpt lat="42.850343" lon="1.783264">
        <ele>1664.2</ele>
        <time>2010-02-07T11:38:50Z</time>
      </trkpt>
      <trkpt lat="42.850296" lon="1.783302">
        <ele>1667.1</ele>
        <time>2010-02-07T11:39:01Z</time>
      </trkpt>
      <trkpt lat="42.850240" lon="1.783319">
        <ele>1669.5</ele>
        <time>2010-02-07T11:39:12Z</time>
      </trkpt>
      <trkpt lat="42.850174" lon="1.783344">
        <ele>1671.9</ele>
        <time>2010-02-07T11:39:24Z</time>
      </trkpt>
      <trkpt lat="42.850155" lon="1.783364">
        <ele>1672.8</ele>
        <time>2010-02-07T11:39:30Z</time>
      </trkpt>
      <trkpt lat="42.850108" lon="1.783387">
        <ele>1675.7</ele>
        <time>2010-02-07T11:39:41Z</time>
      </trkpt>
      <trkpt lat="42.850102" lon="1.783391">
        <ele>1675.2</ele>
        <time>2010-02-07T11:39:42Z</time>
      </trkpt>
      <trkpt lat="42.850043" lon="1.783414">
        <ele>1678.1</ele>
        <time>2010-02-07T11:39:53Z</time>
      </trkpt>
      <trkpt lat="42.849997" lon="1.783428">
        <ele>1680.0</ele>
        <time>2010-02-07T11:40:05Z</time>
      </trkpt>
      <trkpt lat="42.849926" lon="1.783450">
        <ele>1683.4</ele>
        <time>2010-02-07T11:40:18Z</time>
      </trkpt>
      <trkpt lat="42.849873" lon="1.783441">
        <ele>1685.3</ele>
        <time>2010-02-07T11:40:28Z</time>
      </trkpt>
      <trkpt lat="42.849808" lon="1.783411">
        <ele>1688.2</ele>
        <time>2010-02-07T11:40:40Z</time>
      </trkpt>
      <trkpt lat="42.849745" lon="1.783370">
        <ele>1690.1</ele>
        <time>2010-02-07T11:40:51Z</time>
      </trkpt>
      <trkpt lat="42.849671" lon="1.783335">
        <ele>1689.7</ele>
        <time>2010-02-07T11:41:02Z</time>
      </trkpt>
      <trkpt lat="42.849598" lon="1.783301">
        <ele>1691.6</ele>
        <time>2010-02-07T11:41:14Z</time>
      </trkpt>
      <trkpt lat="42.849521" lon="1.783267">
        <ele>1693.5</ele>
        <time>2010-02-07T11:41:28Z</time>
      </trkpt>
      <trkpt lat="42.849479" lon="1.783242">
        <ele>1694.5</ele>
        <time>2010-02-07T11:41:38Z</time>
      </trkpt>
      <trkpt lat="42.849428" lon="1.783230">
        <ele>1695.4</ele>
        <time>2010-02-07T11:41:47Z</time>
      </trkpt>
      <trkpt lat="42.849370" lon="1.783201">
        <ele>1695.4</ele>
        <time>2010-02-07T11:41:58Z</time>
      </trkpt>
      <trkpt lat="42.849313" lon="1.783151">
        <ele>1696.9</ele>
        <time>2010-02-07T11:42:09Z</time>
      </trkpt>
      <trkpt lat="42.849285" lon="1.783121">
        <ele>1698.8</ele>
        <time>2010-02-07T11:42:14Z</time>
      </trkpt>
      <trkpt lat="42.849278" lon="1.783108">
        <ele>1697.3</ele>
        <time>2010-02-07T11:42:16Z</time>
      </trkpt>
      <trkpt lat="42.849231" lon="1.783061">
        <ele>1701.2</ele>
        <time>2010-02-07T11:42:27Z</time>
      </trkpt>
      <trkpt lat="42.849225" lon="1.783055">
        <ele>1701.2</ele>
        <time>2010-02-07T11:42:28Z</time>
      </trkpt>
      <trkpt lat="42.849169" lon="1.783001">
        <ele>1703.1</ele>
        <time>2010-02-07T11:42:39Z</time>
      </trkpt>
      <trkpt lat="42.849165" lon="1.782994">
        <ele>1703.6</ele>
        <time>2010-02-07T11:42:40Z</time>
      </trkpt>
      <trkpt lat="42.849118" lon="1.782960">
        <ele>1703.1</ele>
        <time>2010-02-07T11:42:48Z</time>
      </trkpt>
      <trkpt lat="42.849058" lon="1.782902">
        <ele>1706.5</ele>
        <time>2010-02-07T11:42:59Z</time>
      </trkpt>
      <trkpt lat="42.849006" lon="1.782857">
        <ele>1706.0</ele>
        <time>2010-02-07T11:43:10Z</time>
      </trkpt>
      <trkpt lat="42.848990" lon="1.782841">
        <ele>1707.4</ele>
        <time>2010-02-07T11:43:13Z</time>
      </trkpt>
      <trkpt lat="42.848929" lon="1.782790">
        <ele>1709.8</ele>
        <time>2010-02-07T11:43:25Z</time>
      </trkpt>
      <trkpt lat="42.848878" lon="1.782779">
        <ele>1711.3</ele>
        <time>2010-02-07T11:43:35Z</time>
      </trkpt>
      <trkpt lat="42.848849" lon="1.782764">
        <ele>1712.2</ele>
        <time>2010-02-07T11:43:42Z</time>
      </trkpt>
      <trkpt lat="42.848771" lon="1.782709">
        <ele>1712.2</ele>
        <time>2010-02-07T11:43:55Z</time>
      </trkpt>
      <trkpt lat="42.848689" lon="1.782679">
        <ele>1713.2</ele>
        <time>2010-02-07T11:44:06Z</time>
      </trkpt>
      <trkpt lat="42.848682" lon="1.782678">
        <ele>1713.2</ele>
        <time>2010-02-07T11:44:07Z</time>
      </trkpt>
      <trkpt lat="42.848635" lon="1.782663">
        <ele>1712.2</ele>
        <time>2010-02-07T11:44:13Z</time>
      </trkpt>
      <trkpt lat="42.848544" lon="1.782628">
        <ele>1712.2</ele>
        <time>2010-02-07T11:44:23Z</time>
      </trkpt>
      <trkpt lat="42.848477" lon="1.782620">
        <ele>1711.8</ele>
        <time>2010-02-07T11:44:36Z</time>
      </trkpt>
      <trkpt lat="42.848476" lon="1.782623">
        <ele>1710.3</ele>
        <time>2010-02-07T11:45:15Z</time>
      </trkpt>
      <trkpt lat="42.848399" lon="1.782599">
        <ele>1712.2</ele>
        <time>2010-02-07T11:45:49Z</time>
      </trkpt>
      <trkpt lat="42.848387" lon="1.782598">
        <ele>1712.2</ele>
        <time>2010-02-07T11:45:50Z</time>
      </trkpt>
      <trkpt lat="42.848305" lon="1.782583">
        <ele>1711.8</ele>
        <time>2010-02-07T11:45:58Z</time>
      </trkpt>
      <trkpt lat="42.848184" lon="1.782555">
        <ele>1709.8</ele>
        <time>2010-02-07T11:46:10Z</time>
      </trkpt>
      <trkpt lat="42.848088" lon="1.782495">
        <ele>1708.4</ele>
        <time>2010-02-07T11:46:22Z</time>
      </trkpt>
      <trkpt lat="42.848079" lon="1.782490">
        <ele>1708.4</ele>
        <time>2010-02-07T11:46:23Z</time>
      </trkpt>
      <trkpt lat="42.848021" lon="1.782443">
        <ele>1706.5</ele>
        <time>2010-02-07T11:46:30Z</time>
      </trkpt>
      <trkpt lat="42.847923" lon="1.782387">
        <ele>1707.0</ele>
        <time>2010-02-07T11:46:44Z</time>
      </trkpt>
      <trkpt lat="42.847842" lon="1.782291">
        <ele>1706.0</ele>
        <time>2010-02-07T11:46:57Z</time>
      </trkpt>
      <trkpt lat="42.847833" lon="1.782289">
        <ele>1701.7</ele>
        <time>2010-02-07T11:47:19Z</time>
      </trkpt>
      <trkpt lat="42.847830" lon="1.782285">
        <ele>1702.2</ele>
        <time>2010-02-07T11:47:20Z</time>
      </trkpt>
      <trkpt lat="42.847809" lon="1.782284">
        <ele>1704.1</ele>
        <time>2010-02-07T11:47:25Z</time>
      </trkpt>
      <trkpt lat="42.847809" lon="1.782281">
        <ele>1705.5</ele>
        <time>2010-02-07T11:47:28Z</time>
      </trkpt>
      <trkpt lat="42.847809" lon="1.782281">
        <ele>1703.1</ele>
        <time>2010-02-07T11:47:31Z</time>
      </trkpt>
      <trkpt lat="42.847807" lon="1.782282">
        <ele>1700.7</ele>
        <time>2010-02-07T11:47:38Z</time>
      </trkpt>
      <trkpt lat="42.847807" lon="1.782282">
        <ele>1704.1</ele>
        <time>2010-02-07T11:47:50Z</time>
      </trkpt>
      <trkpt lat="42.847807" lon="1.782282">
        <ele>1703.1</ele>
        <time>2010-02-07T11:47:51Z</time>
      </trkpt>
      <trkpt lat="42.847796" lon="1.782283">
        <ele>1701.2</ele>
        <time>2010-02-07T11:47:53Z</time>
      </trkpt>
      <trkpt lat="42.847813" lon="1.782290">
        <ele>1701.7</ele>
        <time>2010-02-07T11:48:01Z</time>
      </trkpt>
      <trkpt lat="42.847813" lon="1.782290">
        <ele>1703.1</ele>
        <time>2010-02-07T11:48:08Z</time>
      </trkpt>
      <trkpt lat="42.847800" lon="1.782276">
        <ele>1704.1</ele>
        <time>2010-02-07T11:48:18Z</time>
      </trkpt>
      <trkpt lat="42.847730" lon="1.782233">
        <ele>1704.6</ele>
        <time>2010-02-07T11:48:24Z</time>
      </trkpt>
      <trkpt lat="42.847608" lon="1.782188">
        <ele>1707.0</ele>
        <time>2010-02-07T11:48:39Z</time>
      </trkpt>
      <trkpt lat="42.847530" lon="1.782102">
        <ele>1705.0</ele>
        <time>2010-02-07T11:48:53Z</time>
      </trkpt>
      <trkpt lat="42.847493" lon="1.782102">
        <ele>1707.4</ele>
        <time>2010-02-07T11:48:57Z</time>
      </trkpt>
      <trkpt lat="42.847403" lon="1.782121">
        <ele>1706.5</ele>
        <time>2010-02-07T11:49:08Z</time>
      </trkpt>
      <trkpt lat="42.847309" lon="1.782114">
        <ele>1707.0</ele>
        <time>2010-02-07T11:49:21Z</time>
      </trkpt>
      <trkpt lat="42.847229" lon="1.782058">
        <ele>1707.9</ele>
        <time>2010-02-07T11:49:35Z</time>
      </trkpt>
      <trkpt lat="42.847147" lon="1.782041">
        <ele>1710.8</ele>
        <time>2010-02-07T11:49:51Z</time>
      </trkpt>
      <trkpt lat="42.847120" lon="1.782030">
        <ele>1709.4</ele>
        <time>2010-02-07T11:49:56Z</time>
      </trkpt>
      <trkpt lat="42.847100" lon="1.782029">
        <ele>1710.8</ele>
        <time>2010-02-07T11:49:59Z</time>
      </trkpt>
      <trkpt lat="42.847049" lon="1.782007">
        <ele>1714.2</ele>
        <time>2010-02-07T11:50:12Z</time>
      </trkpt>
      <trkpt lat="42.846986" lon="1.781958">
        <ele>1715.6</ele>
        <time>2010-02-07T11:50:25Z</time>
      </trkpt>
      <trkpt lat="42.846939" lon="1.781892">
        <ele>1718.5</ele>
        <time>2010-02-07T11:50:35Z</time>
      </trkpt>
      <trkpt lat="42.846926" lon="1.781875">
        <ele>1717.1</ele>
        <time>2010-02-07T11:50:38Z</time>
      </trkpt>
      <trkpt lat="42.846912" lon="1.781864">
        <ele>1718.0</ele>
        <time>2010-02-07T11:50:40Z</time>
      </trkpt>
      <trkpt lat="42.846880" lon="1.781843">
        <ele>1719.0</ele>
        <time>2010-02-07T11:50:52Z</time>
      </trkpt>
      <trkpt lat="42.846871" lon="1.781832">
        <ele>1720.4</ele>
        <time>2010-02-07T11:50:54Z</time>
      </trkpt>
      <trkpt lat="42.846865" lon="1.781828">
        <ele>1719.0</ele>
        <time>2010-02-07T11:50:55Z</time>
      </trkpt>
      <trkpt lat="42.846800" lon="1.781774">
        <ele>1720.9</ele>
        <time>2010-02-07T11:51:11Z</time>
      </trkpt>
      <trkpt lat="42.846776" lon="1.781764">
        <ele>1722.8</ele>
        <time>2010-02-07T11:51:14Z</time>
      </trkpt>
      <trkpt lat="42.846731" lon="1.781778">
        <ele>1722.3</ele>
        <time>2010-02-07T11:51:26Z</time>
      </trkpt>
      <trkpt lat="42.846700" lon="1.781728">
        <ele>1720.9</ele>
        <time>2010-02-07T11:51:33Z</time>
      </trkpt>
      <trkpt lat="42.846685" lon="1.781719">
        <ele>1719.5</ele>
        <time>2010-02-07T11:51:36Z</time>
      </trkpt>
      <trkpt lat="42.846631" lon="1.781681">
        <ele>1717.1</ele>
        <time>2010-02-07T11:51:46Z</time>
      </trkpt>
      <trkpt lat="42.846614" lon="1.781677">
        <ele>1717.5</ele>
        <time>2010-02-07T11:51:48Z</time>
      </trkpt>
      <trkpt lat="42.846496" lon="1.781672">
        <ele>1715.6</ele>
        <time>2010-02-07T11:52:02Z</time>
      </trkpt>
      <trkpt lat="42.846448" lon="1.781678">
        <ele>1715.6</ele>
        <time>2010-02-07T11:52:23Z</time>
      </trkpt>
      <trkpt lat="42.846437" lon="1.781676">
        <ele>1717.1</ele>
        <time>2010-02-07T11:52:25Z</time>
      </trkpt>
      <trkpt lat="42.846346" lon="1.781676">
        <ele>1715.6</ele>
        <time>2010-02-07T11:52:39Z</time>
      </trkpt>
      <trkpt lat="42.846318" lon="1.781664">
        <ele>1715.6</ele>
        <time>2010-02-07T11:53:06Z</time>
      </trkpt>
      <trkpt lat="42.846262" lon="1.781702">
        <ele>1717.5</ele>
        <time>2010-02-07T11:53:23Z</time>
      </trkpt>
      <trkpt lat="42.846195" lon="1.781723">
        <ele>1721.4</ele>
        <time>2010-02-07T11:53:35Z</time>
      </trkpt>
      <trkpt lat="42.846103" lon="1.781734">
        <ele>1719.9</ele>
        <time>2010-02-07T11:53:44Z</time>
      </trkpt>
      <trkpt lat="42.845998" lon="1.781858">
        <ele>1728.6</ele>
        <time>2010-02-07T11:55:00Z</time>
      </trkpt>
      <trkpt lat="42.846002" lon="1.781868">
        <ele>1729.5</ele>
        <time>2010-02-07T11:55:09Z</time>
      </trkpt>
      <trkpt lat="42.846004" lon="1.781869">
        <ele>1729.5</ele>
        <time>2010-02-07T11:55:18Z</time>
      </trkpt>
      <trkpt lat="42.846004" lon="1.781869">
        <ele>1730.5</ele>
        <time>2010-02-07T11:55:29Z</time>
      </trkpt>
      <trkpt lat="42.846004" lon="1.781869">
        <ele>1731.0</ele>
        <time>2010-02-07T11:55:45Z</time>
      </trkpt>
      <trkpt lat="42.846004" lon="1.781869">
        <ele>1725.2</ele>
        <time>2010-02-07T11:55:46Z</time>
      </trkpt>
      <trkpt lat="42.846004" lon="1.781869">
        <ele>1730.5</ele>
        <time>2010-02-07T11:55:47Z</time>
      </trkpt>
      <trkpt lat="42.846004" lon="1.781869">
        <ele>1732.0</ele>
        <time>2010-02-07T11:55:51Z</time>
      </trkpt>
      <trkpt lat="42.845994" lon="1.781888">
        <ele>1729.5</ele>
        <time>2010-02-07T11:55:53Z</time>
      </trkpt>
      <trkpt lat="42.845879" lon="1.781917">
        <ele>1731.5</ele>
        <time>2010-02-07T11:56:07Z</time>
      </trkpt>
      <trkpt lat="42.845821" lon="1.781941">
        <ele>1733.9</ele>
        <time>2010-02-07T11:56:17Z</time>
      </trkpt>
      <trkpt lat="42.845815" lon="1.781953">
        <ele>1734.8</ele>
        <time>2010-02-07T11:56:22Z</time>
      </trkpt>
      <trkpt lat="42.845706" lon="1.781907">
        <ele>1737.7</ele>
        <time>2010-02-07T11:56:50Z</time>
      </trkpt>
      <trkpt lat="42.845662" lon="1.781839">
        <ele>1740.1</ele>
        <time>2010-02-07T11:57:22Z</time>
      </trkpt>
      <trkpt lat="42.845621" lon="1.781747">
        <ele>1744.9</ele>
        <time>2010-02-07T11:58:30Z</time>
      </trkpt>
      <trkpt lat="42.845627" lon="1.781722">
        <ele>1745.4</ele>
        <time>2010-02-07T11:58:34Z</time>
      </trkpt>
      <trkpt lat="42.845604" lon="1.781637">
        <ele>1747.3</ele>
        <time>2010-02-07T11:58:48Z</time>
      </trkpt>
      <trkpt lat="42.845458" lon="1.781631">
        <ele>1757.9</ele>
        <time>2010-02-07T12:01:25Z</time>
      </trkpt>
      <trkpt lat="42.845352" lon="1.781572">
        <ele>1766.6</ele>
        <time>2010-02-07T12:02:52Z</time>
      </trkpt>
      <trkpt lat="42.845334" lon="1.781585">
        <ele>1767.5</ele>
        <time>2010-02-07T12:03:08Z</time>
      </trkpt>
      <trkpt lat="42.845333" lon="1.781580">
        <ele>1767.0</ele>
        <time>2010-02-07T12:03:41Z</time>
      </trkpt>
      <trkpt lat="42.845333" lon="1.781580">
        <ele>1768.5</ele>
        <time>2010-02-07T12:03:44Z</time>
      </trkpt>
      <trkpt lat="42.845246" lon="1.781567">
        <ele>1771.8</ele>
        <time>2010-02-07T12:05:17Z</time>
      </trkpt>
      <trkpt lat="42.845246" lon="1.781567">
        <ele>1771.4</ele>
        <time>2010-02-07T12:05:26Z</time>
      </trkpt>
      <trkpt lat="42.845219" lon="1.781504">
        <ele>1774.3</ele>
        <time>2010-02-07T12:06:13Z</time>
      </trkpt>
      <trkpt lat="42.845124" lon="1.781458">
        <ele>1780.5</ele>
        <time>2010-02-07T12:11:01Z</time>
      </trkpt>
      <trkpt lat="42.845085" lon="1.781496">
        <ele>1782.9</ele>
        <time>2010-02-07T12:11:15Z</time>
      </trkpt>
      <trkpt lat="42.844995" lon="1.781562">
        <ele>1786.3</ele>
        <time>2010-02-07T12:11:41Z</time>
      </trkpt>
      <trkpt lat="42.844965" lon="1.781590">
        <ele>1787.7</ele>
        <time>2010-02-07T12:11:49Z</time>
      </trkpt>
      <trkpt lat="42.844920" lon="1.781599">
        <ele>1787.7</ele>
        <time>2010-02-07T12:12:04Z</time>
      </trkpt>
      <trkpt lat="42.844891" lon="1.781589">
        <ele>1791.1</ele>
        <time>2010-02-07T12:12:12Z</time>
      </trkpt>
      <trkpt lat="42.844878" lon="1.781558">
        <ele>1792.0</ele>
        <time>2010-02-07T12:12:35Z</time>
      </trkpt>
      <trkpt lat="42.844884" lon="1.781531">
        <ele>1794.0</ele>
        <time>2010-02-07T12:12:39Z</time>
      </trkpt>
      <trkpt lat="42.844911" lon="1.781458">
        <ele>1794.4</ele>
        <time>2010-02-07T12:12:51Z</time>
      </trkpt>
      <trkpt lat="42.844927" lon="1.781402">
        <ele>1797.8</ele>
        <time>2010-02-07T12:12:59Z</time>
      </trkpt>
      <trkpt lat="42.844899" lon="1.781374">
        <ele>1798.3</ele>
        <time>2010-02-07T12:13:18Z</time>
      </trkpt>
      <trkpt lat="42.844888" lon="1.781353">
        <ele>1801.6</ele>
        <time>2010-02-07T12:13:30Z</time>
      </trkpt>
      <trkpt lat="42.844865" lon="1.781320">
        <ele>1801.6</ele>
        <time>2010-02-07T12:13:47Z</time>
      </trkpt>
      <trkpt lat="42.844823" lon="1.781312">
        <ele>1804.1</ele>
        <time>2010-02-07T12:14:38Z</time>
      </trkpt>
      <trkpt lat="42.844715" lon="1.781302">
        <ele>1806.5</ele>
        <time>2010-02-07T12:14:55Z</time>
      </trkpt>
      <trkpt lat="42.844691" lon="1.781260">
        <ele>1808.4</ele>
        <time>2010-02-07T12:15:01Z</time>
      </trkpt>
      <trkpt lat="42.844625" lon="1.781289">
        <ele>1810.3</ele>
        <time>2010-02-07T12:15:13Z</time>
      </trkpt>
      <trkpt lat="42.844605" lon="1.781306">
        <ele>1811.3</ele>
        <time>2010-02-07T12:15:17Z</time>
      </trkpt>
      <trkpt lat="42.844514" lon="1.781342">
        <ele>1813.7</ele>
        <time>2010-02-07T12:15:35Z</time>
      </trkpt>
      <trkpt lat="42.844469" lon="1.781305">
        <ele>1815.6</ele>
        <time>2010-02-07T12:15:46Z</time>
      </trkpt>
      <trkpt lat="42.844447" lon="1.781272">
        <ele>1818.5</ele>
        <time>2010-02-07T12:16:01Z</time>
      </trkpt>
      <trkpt lat="42.844390" lon="1.781262">
        <ele>1820.9</ele>
        <time>2010-02-07T12:16:18Z</time>
      </trkpt>
      <trkpt lat="42.844394" lon="1.781211">
        <ele>1822.8</ele>
        <time>2010-02-07T12:16:32Z</time>
      </trkpt>
      <trkpt lat="42.844393" lon="1.781193">
        <ele>1821.8</ele>
        <time>2010-02-07T12:17:19Z</time>
      </trkpt>
      <trkpt lat="42.844393" lon="1.781193">
        <ele>1824.7</ele>
        <time>2010-02-07T12:17:27Z</time>
      </trkpt>
      <trkpt lat="42.844393" lon="1.781193">
        <ele>1824.7</ele>
        <time>2010-02-07T12:17:28Z</time>
      </trkpt>
      <trkpt lat="42.844390" lon="1.781190">
        <ele>1822.3</ele>
        <time>2010-02-07T12:17:33Z</time>
      </trkpt>
      <trkpt lat="42.844390" lon="1.781190">
        <ele>1822.8</ele>
        <time>2010-02-07T12:18:04Z</time>
      </trkpt>
      <trkpt lat="42.844389" lon="1.781182">
        <ele>1822.3</ele>
        <time>2010-02-07T12:18:33Z</time>
      </trkpt>
      <trkpt lat="42.844388" lon="1.781179">
        <ele>1821.4</ele>
        <time>2010-02-07T12:18:52Z</time>
      </trkpt>
      <trkpt lat="42.844387" lon="1.781190">
        <ele>1824.2</ele>
        <time>2010-02-07T12:18:57Z</time>
      </trkpt>
      <trkpt lat="42.844388" lon="1.781190">
        <ele>1823.3</ele>
        <time>2010-02-07T12:19:11Z</time>
      </trkpt>
      <trkpt lat="42.844388" lon="1.781190">
        <ele>1824.2</ele>
        <time>2010-02-07T12:19:33Z</time>
      </trkpt>
      <trkpt lat="42.844384" lon="1.781197">
        <ele>1824.7</ele>
        <time>2010-02-07T12:20:14Z</time>
      </trkpt>
      <trkpt lat="42.844312" lon="1.781139">
        <ele>1822.8</ele>
        <time>2010-02-07T12:20:20Z</time>
      </trkpt>
      <trkpt lat="42.844204" lon="1.781015">
        <ele>1819.9</ele>
        <time>2010-02-07T12:20:27Z</time>
      </trkpt>
      <trkpt lat="42.844115" lon="1.780865">
        <ele>1818.0</ele>
        <time>2010-02-07T12:20:39Z</time>
      </trkpt>
      <trkpt lat="42.844080" lon="1.780778">
        <ele>1816.5</ele>
        <time>2010-02-07T12:20:45Z</time>
      </trkpt>
      <trkpt lat="42.844043" lon="1.780706">
        <ele>1815.1</ele>
        <time>2010-02-07T12:20:49Z</time>
      </trkpt>
      <trkpt lat="42.843949" lon="1.780507">
        <ele>1814.1</ele>
        <time>2010-02-07T12:21:01Z</time>
      </trkpt>
      <trkpt lat="42.843832" lon="1.780269">
        <ele>1812.7</ele>
        <time>2010-02-07T12:21:16Z</time>
      </trkpt>
      <trkpt lat="42.843753" lon="1.780175">
        <ele>1812.2</ele>
        <time>2010-02-07T12:21:25Z</time>
      </trkpt>
      <trkpt lat="42.843737" lon="1.780158">
        <ele>1811.3</ele>
        <time>2010-02-07T12:21:27Z</time>
      </trkpt>
      <trkpt lat="42.843626" lon="1.780047">
        <ele>1812.7</ele>
        <time>2010-02-07T12:21:39Z</time>
      </trkpt>
      <trkpt lat="42.843565" lon="1.779943">
        <ele>1814.6</ele>
        <time>2010-02-07T12:21:50Z</time>
      </trkpt>
      <trkpt lat="42.843498" lon="1.779842">
        <ele>1814.1</ele>
        <time>2010-02-07T12:22:01Z</time>
      </trkpt>
      <trkpt lat="42.843419" lon="1.779698">
        <ele>1814.1</ele>
        <time>2010-02-07T12:22:14Z</time>
      </trkpt>
      <trkpt lat="42.843377" lon="1.779615">
        <ele>1817.0</ele>
        <time>2010-02-07T12:22:23Z</time>
      </trkpt>
      <trkpt lat="42.843328" lon="1.779505">
        <ele>1817.5</ele>
        <time>2010-02-07T12:22:35Z</time>
      </trkpt>
      <trkpt lat="42.843274" lon="1.779441">
        <ele>1819.4</ele>
        <time>2010-02-07T12:22:46Z</time>
      </trkpt>
      <trkpt lat="42.843235" lon="1.779407">
        <ele>1819.9</ele>
        <time>2010-02-07T12:22:52Z</time>
      </trkpt>
      <trkpt lat="42.843199" lon="1.779366">
        <ele>1820.9</ele>
        <time>2010-02-07T12:22:57Z</time>
      </trkpt>
      <trkpt lat="42.843133" lon="1.779294">
        <ele>1823.3</ele>
        <time>2010-02-07T12:23:11Z</time>
      </trkpt>
      <trkpt lat="42.843112" lon="1.779256">
        <ele>1824.2</ele>
        <time>2010-02-07T12:23:18Z</time>
      </trkpt>
      <trkpt lat="42.843065" lon="1.779185">
        <ele>1825.2</ele>
        <time>2010-02-07T12:23:29Z</time>
      </trkpt>
      <trkpt lat="42.843021" lon="1.779101">
        <ele>1828.1</ele>
        <time>2010-02-07T12:23:43Z</time>
      </trkpt>
      <trkpt lat="42.843007" lon="1.779069">
        <ele>1829.5</ele>
        <time>2010-02-07T12:23:53Z</time>
      </trkpt>
      <trkpt lat="42.842959" lon="1.779005">
        <ele>1831.4</ele>
        <time>2010-02-07T12:24:05Z</time>
      </trkpt>
      <trkpt lat="42.842923" lon="1.778951">
        <ele>1832.9</ele>
        <time>2010-02-07T12:24:17Z</time>
      </trkpt>
      <trkpt lat="42.842880" lon="1.778884">
        <ele>1835.3</ele>
        <time>2010-02-07T12:24:32Z</time>
      </trkpt>
      <trkpt lat="42.842848" lon="1.778838">
        <ele>1837.7</ele>
        <time>2010-02-07T12:24:44Z</time>
      </trkpt>
      <trkpt lat="42.842811" lon="1.778795">
        <ele>1839.1</ele>
        <time>2010-02-07T12:24:56Z</time>
      </trkpt>
      <trkpt lat="42.842741" lon="1.778734">
        <ele>1841.1</ele>
        <time>2010-02-07T12:25:11Z</time>
      </trkpt>
      <trkpt lat="42.842702" lon="1.778674">
        <ele>1843.0</ele>
        <time>2010-02-07T12:25:26Z</time>
      </trkpt>
      <trkpt lat="42.842665" lon="1.778620">
        <ele>1846.3</ele>
        <time>2010-02-07T12:25:44Z</time>
      </trkpt>
      <trkpt lat="42.842648" lon="1.778607">
        <ele>1845.4</ele>
        <time>2010-02-07T12:25:47Z</time>
      </trkpt>
      <trkpt lat="42.842593" lon="1.778595">
        <ele>1848.3</ele>
        <time>2010-02-07T12:26:06Z</time>
      </trkpt>
      <trkpt lat="42.842527" lon="1.778581">
        <ele>1850.2</ele>
        <time>2010-02-07T12:26:21Z</time>
      </trkpt>
      <trkpt lat="42.842506" lon="1.778546">
        <ele>1851.6</ele>
        <time>2010-02-07T12:26:39Z</time>
      </trkpt>
      <trkpt lat="42.842460" lon="1.778510">
        <ele>1853.6</ele>
        <time>2010-02-07T12:26:52Z</time>
      </trkpt>
      <trkpt lat="42.842424" lon="1.778494">
        <ele>1856.4</ele>
        <time>2010-02-07T12:27:10Z</time>
      </trkpt>
      <trkpt lat="42.842359" lon="1.778480">
        <ele>1857.9</ele>
        <time>2010-02-07T12:27:25Z</time>
      </trkpt>
      <trkpt lat="42.842335" lon="1.778429">
        <ele>1859.8</ele>
        <time>2010-02-07T12:27:42Z</time>
      </trkpt>
      <trkpt lat="42.842310" lon="1.778437">
        <ele>1862.2</ele>
        <time>2010-02-07T12:27:52Z</time>
      </trkpt>
      <trkpt lat="42.842265" lon="1.778432">
        <ele>1862.7</ele>
        <time>2010-02-07T12:28:05Z</time>
      </trkpt>
      <trkpt lat="42.842249" lon="1.778408">
        <ele>1866.1</ele>
        <time>2010-02-07T12:28:18Z</time>
      </trkpt>
      <trkpt lat="42.842176" lon="1.778318">
        <ele>1867.5</ele>
        <time>2010-02-07T12:28:34Z</time>
      </trkpt>
      <trkpt lat="42.842106" lon="1.778346">
        <ele>1868.9</ele>
        <time>2010-02-07T12:28:48Z</time>
      </trkpt>
      <trkpt lat="42.842047" lon="1.778355">
        <ele>1870.4</ele>
        <time>2010-02-07T12:29:02Z</time>
      </trkpt>
      <trkpt lat="42.842011" lon="1.778346">
        <ele>1871.3</ele>
        <time>2010-02-07T12:29:15Z</time>
      </trkpt>
      <trkpt lat="42.841981" lon="1.778249">
        <ele>1874.2</ele>
        <time>2010-02-07T12:29:31Z</time>
      </trkpt>
      <trkpt lat="42.841967" lon="1.778179">
        <ele>1876.6</ele>
        <time>2010-02-07T12:29:49Z</time>
      </trkpt>
      <trkpt lat="42.841953" lon="1.778071">
        <ele>1877.6</ele>
        <time>2010-02-07T12:30:04Z</time>
      </trkpt>
      <trkpt lat="42.841943" lon="1.778021">
        <ele>1878.1</ele>
        <time>2010-02-07T12:30:21Z</time>
      </trkpt>
      <trkpt lat="42.841944" lon="1.778013">
        <ele>1878.1</ele>
        <time>2010-02-07T12:30:54Z</time>
      </trkpt>
      <trkpt lat="42.841905" lon="1.777904">
        <ele>1880.5</ele>
        <time>2010-02-07T12:31:07Z</time>
      </trkpt>
      <trkpt lat="42.841831" lon="1.777898">
        <ele>1882.4</ele>
        <time>2010-02-07T12:31:20Z</time>
      </trkpt>
      <trkpt lat="42.841774" lon="1.777810">
        <ele>1884.8</ele>
        <time>2010-02-07T12:31:33Z</time>
      </trkpt>
      <trkpt lat="42.841721" lon="1.777734">
        <ele>1886.2</ele>
        <time>2010-02-07T12:31:45Z</time>
      </trkpt>
      <trkpt lat="42.841674" lon="1.777679">
        <ele>1888.2</ele>
        <time>2010-02-07T12:31:57Z</time>
      </trkpt>
      <trkpt lat="42.841641" lon="1.777655">
        <ele>1888.6</ele>
        <time>2010-02-07T12:32:03Z</time>
      </trkpt>
      <trkpt lat="42.841583" lon="1.777608">
        <ele>1890.6</ele>
        <time>2010-02-07T12:32:16Z</time>
      </trkpt>
      <trkpt lat="42.841514" lon="1.777591">
        <ele>1893.0</ele>
        <time>2010-02-07T12:32:31Z</time>
      </trkpt>
      <trkpt lat="42.841486" lon="1.777549">
        <ele>1889.6</ele>
        <time>2010-02-07T12:32:49Z</time>
      </trkpt>
      <trkpt lat="42.841480" lon="1.777545">
        <ele>1893.0</ele>
        <time>2010-02-07T12:32:50Z</time>
      </trkpt>
      <trkpt lat="42.841385" lon="1.777448">
        <ele>1895.9</ele>
        <time>2010-02-07T12:33:04Z</time>
      </trkpt>
      <trkpt lat="42.841334" lon="1.777387">
        <ele>1896.3</ele>
        <time>2010-02-07T12:33:23Z</time>
      </trkpt>
      <trkpt lat="42.841283" lon="1.777276">
        <ele>1897.3</ele>
        <time>2010-02-07T12:33:36Z</time>
      </trkpt>
      <trkpt lat="42.841233" lon="1.777173">
        <ele>1896.8</ele>
        <time>2010-02-07T12:33:51Z</time>
      </trkpt>
      <trkpt lat="42.841146" lon="1.777087">
        <ele>1897.3</ele>
        <time>2010-02-07T12:34:05Z</time>
      </trkpt>
      <trkpt lat="42.841074" lon="1.777047">
        <ele>1899.7</ele>
        <time>2010-02-07T12:34:18Z</time>
      </trkpt>
      <trkpt lat="42.841044" lon="1.777034">
        <ele>1900.7</ele>
        <time>2010-02-07T12:34:24Z</time>
      </trkpt>
      <trkpt lat="42.840997" lon="1.776997">
        <ele>1900.2</ele>
        <time>2010-02-07T12:34:36Z</time>
      </trkpt>
      <trkpt lat="42.840919" lon="1.776913">
        <ele>1902.1</ele>
        <time>2010-02-07T12:34:49Z</time>
      </trkpt>
      <trkpt lat="42.840823" lon="1.776776">
        <ele>1903.5</ele>
        <time>2010-02-07T12:35:06Z</time>
      </trkpt>
      <trkpt lat="42.840735" lon="1.776704">
        <ele>1904.0</ele>
        <time>2010-02-07T12:35:22Z</time>
      </trkpt>
      <trkpt lat="42.840650" lon="1.776657">
        <ele>1906.4</ele>
        <time>2010-02-07T12:35:36Z</time>
      </trkpt>
      <trkpt lat="42.840583" lon="1.776625">
        <ele>1907.4</ele>
        <time>2010-02-07T12:35:49Z</time>
      </trkpt>
      <trkpt lat="42.840489" lon="1.776600">
        <ele>1909.3</ele>
        <time>2010-02-07T12:36:02Z</time>
      </trkpt>
      <trkpt lat="42.840392" lon="1.776563">
        <ele>1909.3</ele>
        <time>2010-02-07T12:36:16Z</time>
      </trkpt>
      <trkpt lat="42.840285" lon="1.776494">
        <ele>1909.3</ele>
        <time>2010-02-07T12:36:31Z</time>
      </trkpt>
      <trkpt lat="42.840204" lon="1.776447">
        <ele>1911.7</ele>
        <time>2010-02-07T12:36:45Z</time>
      </trkpt>
      <trkpt lat="42.840088" lon="1.776393">
        <ele>1911.7</ele>
        <time>2010-02-07T12:37:01Z</time>
      </trkpt>
      <trkpt lat="42.839974" lon="1.776328">
        <ele>1912.2</ele>
        <time>2010-02-07T12:37:19Z</time>
      </trkpt>
      <trkpt lat="42.839868" lon="1.776268">
        <ele>1913.2</ele>
        <time>2010-02-07T12:37:35Z</time>
      </trkpt>
      <trkpt lat="42.839784" lon="1.776224">
        <ele>1914.1</ele>
        <time>2010-02-07T12:37:48Z</time>
      </trkpt>
      <trkpt lat="42.839686" lon="1.776195">
        <ele>1914.1</ele>
        <time>2010-02-07T12:38:02Z</time>
      </trkpt>
      <trkpt lat="42.839561" lon="1.776095">
        <ele>1913.2</ele>
        <time>2010-02-07T12:38:17Z</time>
      </trkpt>
      <trkpt lat="42.839481" lon="1.776014">
        <ele>1911.2</ele>
        <time>2010-02-07T12:38:24Z</time>
      </trkpt>
      <trkpt lat="42.839429" lon="1.775947">
        <ele>1909.3</ele>
        <time>2010-02-07T12:38:27Z</time>
      </trkpt>
      <trkpt lat="42.839382" lon="1.775760">
        <ele>1907.9</ele>
        <time>2010-02-07T12:38:41Z</time>
      </trkpt>
      <trkpt lat="42.839345" lon="1.775655">
        <ele>1907.9</ele>
        <time>2010-02-07T12:38:54Z</time>
      </trkpt>
      <trkpt lat="42.839289" lon="1.775622">
        <ele>1906.9</ele>
        <time>2010-02-07T12:39:34Z</time>
      </trkpt>
      <trkpt lat="42.839276" lon="1.775610">
        <ele>1907.9</ele>
        <time>2010-02-07T12:40:17Z</time>
      </trkpt>
      <trkpt lat="42.839274" lon="1.775611">
        <ele>1908.8</ele>
        <time>2010-02-07T12:41:14Z</time>
      </trkpt>
      <trkpt lat="42.839274" lon="1.775611">
        <ele>1907.9</ele>
        <time>2010-02-07T12:41:16Z</time>
      </trkpt>
      <trkpt lat="42.839207" lon="1.775568">
        <ele>1907.4</ele>
        <time>2010-02-07T12:41:31Z</time>
      </trkpt>
      <trkpt lat="42.839161" lon="1.775529">
        <ele>1907.4</ele>
        <time>2010-02-07T12:42:04Z</time>
      </trkpt>
      <trkpt lat="42.839080" lon="1.775451">
        <ele>1908.8</ele>
        <time>2010-02-07T12:42:55Z</time>
      </trkpt>
      <trkpt lat="42.839001" lon="1.775331">
        <ele>1910.3</ele>
        <time>2010-02-07T12:43:10Z</time>
      </trkpt>
      <trkpt lat="42.838999" lon="1.775327">
        <ele>1911.2</ele>
        <time>2010-02-07T12:43:11Z</time>
      </trkpt>
      <trkpt lat="42.838892" lon="1.775194">
        <ele>1909.8</ele>
        <time>2010-02-07T12:43:27Z</time>
      </trkpt>
      <trkpt lat="42.838737" lon="1.775060">
        <ele>1907.4</ele>
        <time>2010-02-07T12:43:43Z</time>
      </trkpt>
      <trkpt lat="42.838611" lon="1.774932">
        <ele>1907.9</ele>
        <time>2010-02-07T12:43:59Z</time>
      </trkpt>
      <trkpt lat="42.838454" lon="1.774817">
        <ele>1907.9</ele>
        <time>2010-02-07T12:44:14Z</time>
      </trkpt>
      <trkpt lat="42.838304" lon="1.774762">
        <ele>1907.4</ele>
        <time>2010-02-07T12:44:30Z</time>
      </trkpt>
      <trkpt lat="42.838167" lon="1.774712">
        <ele>1906.0</ele>
        <time>2010-02-07T12:44:43Z</time>
      </trkpt>
      <trkpt lat="42.838013" lon="1.774657">
        <ele>1903.1</ele>
        <time>2010-02-07T12:44:57Z</time>
      </trkpt>
      <trkpt lat="42.837946" lon="1.774544">
        <ele>1904.5</ele>
        <time>2010-02-07T12:45:10Z</time>
      </trkpt>
      <trkpt lat="42.837839" lon="1.774446">
        <ele>1905.0</ele>
        <time>2010-02-07T12:45:26Z</time>
      </trkpt>
      <trkpt lat="42.837831" lon="1.774441">
        <ele>1906.4</ele>
        <time>2010-02-07T12:45:27Z</time>
      </trkpt>
      <trkpt lat="42.837702" lon="1.774361">
        <ele>1907.4</ele>
        <time>2010-02-07T12:45:41Z</time>
      </trkpt>
      <trkpt lat="42.837566" lon="1.774324">
        <ele>1906.4</ele>
        <time>2010-02-07T12:45:56Z</time>
      </trkpt>
      <trkpt lat="42.837436" lon="1.774325">
        <ele>1906.4</ele>
        <time>2010-02-07T12:46:11Z</time>
      </trkpt>
      <trkpt lat="42.837307" lon="1.774260">
        <ele>1906.4</ele>
        <time>2010-02-07T12:46:26Z</time>
      </trkpt>
      <trkpt lat="42.837165" lon="1.774235">
        <ele>1906.4</ele>
        <time>2010-02-07T12:46:43Z</time>
      </trkpt>
      <trkpt lat="42.837039" lon="1.774218">
        <ele>1906.9</ele>
        <time>2010-02-07T12:46:58Z</time>
      </trkpt>
      <trkpt lat="42.836924" lon="1.774193">
        <ele>1906.4</ele>
        <time>2010-02-07T12:47:12Z</time>
      </trkpt>
      <trkpt lat="42.836925" lon="1.774202">
        <ele>1906.0</ele>
        <time>2010-02-07T12:47:36Z</time>
      </trkpt>
      <trkpt lat="42.836925" lon="1.774202">
        <ele>1907.9</ele>
        <time>2010-02-07T12:47:47Z</time>
      </trkpt>
      <trkpt lat="42.836801" lon="1.774203">
        <ele>1906.4</ele>
        <time>2010-02-07T12:48:16Z</time>
      </trkpt>
      <trkpt lat="42.836643" lon="1.774165">
        <ele>1906.0</ele>
        <time>2010-02-07T12:48:30Z</time>
      </trkpt>
      <trkpt lat="42.836500" lon="1.774082">
        <ele>1904.5</ele>
        <time>2010-02-07T12:48:45Z</time>
      </trkpt>
      <trkpt lat="42.836370" lon="1.773886">
        <ele>1902.6</ele>
        <time>2010-02-07T12:49:00Z</time>
      </trkpt>
      <trkpt lat="42.836333" lon="1.773850">
        <ele>1902.1</ele>
        <time>2010-02-07T12:49:15Z</time>
      </trkpt>
      <trkpt lat="42.836333" lon="1.773850">
        <ele>1902.6</ele>
        <time>2010-02-07T12:49:25Z</time>
      </trkpt>
      <trkpt lat="42.836310" lon="1.773837">
        <ele>1901.6</ele>
        <time>2010-02-07T12:49:42Z</time>
      </trkpt>
      <trkpt lat="42.836310" lon="1.773837">
        <ele>1902.1</ele>
        <time>2010-02-07T12:49:51Z</time>
      </trkpt>
      <trkpt lat="42.836221" lon="1.773879">
        <ele>1903.5</ele>
        <time>2010-02-07T12:50:23Z</time>
      </trkpt>
      <trkpt lat="42.836197" lon="1.773875">
        <ele>1903.1</ele>
        <time>2010-02-07T12:50:25Z</time>
      </trkpt>
      <trkpt lat="42.836149" lon="1.773855">
        <ele>1902.6</ele>
        <time>2010-02-07T12:50:29Z</time>
      </trkpt>
      <trkpt lat="42.836006" lon="1.773813">
        <ele>1904.0</ele>
        <time>2010-02-07T12:50:43Z</time>
      </trkpt>
      <trkpt lat="42.835959" lon="1.773810">
        <ele>1904.5</ele>
        <time>2010-02-07T12:50:49Z</time>
      </trkpt>
      <trkpt lat="42.835871" lon="1.773819">
        <ele>1904.5</ele>
        <time>2010-02-07T12:50:59Z</time>
      </trkpt>
      <trkpt lat="42.835802" lon="1.773789">
        <ele>1904.5</ele>
        <time>2010-02-07T12:51:07Z</time>
      </trkpt>
      <trkpt lat="42.835730" lon="1.773645">
        <ele>1900.7</ele>
        <time>2010-02-07T12:51:16Z</time>
      </trkpt>
      <trkpt lat="42.835715" lon="1.773614">
        <ele>1901.1</ele>
        <time>2010-02-07T12:51:18Z</time>
      </trkpt>
      <trkpt lat="42.835697" lon="1.773594">
        <ele>1902.1</ele>
        <time>2010-02-07T12:51:20Z</time>
      </trkpt>
      <trkpt lat="42.835565" lon="1.773572">
        <ele>1902.1</ele>
        <time>2010-02-07T12:51:34Z</time>
      </trkpt>
      <trkpt lat="42.835438" lon="1.773549">
        <ele>1904.5</ele>
        <time>2010-02-07T12:51:49Z</time>
      </trkpt>
      <trkpt lat="42.835382" lon="1.773548">
        <ele>1904.5</ele>
        <time>2010-02-07T12:51:55Z</time>
      </trkpt>
      <trkpt lat="42.835255" lon="1.773489">
        <ele>1905.0</ele>
        <time>2010-02-07T12:52:09Z</time>
      </trkpt>
      <trkpt lat="42.835183" lon="1.773457">
        <ele>1906.9</ele>
        <time>2010-02-07T12:52:17Z</time>
      </trkpt>
      <trkpt lat="42.835051" lon="1.773316">
        <ele>1903.1</ele>
        <time>2010-02-07T12:52:31Z</time>
      </trkpt>
      <trkpt lat="42.834966" lon="1.773291">
        <ele>1905.0</ele>
        <time>2010-02-07T12:52:43Z</time>
      </trkpt>
      <trkpt lat="42.834940" lon="1.773289">
        <ele>1906.4</ele>
        <time>2010-02-07T12:52:46Z</time>
      </trkpt>
      <trkpt lat="42.834840" lon="1.773270">
        <ele>1906.9</ele>
        <time>2010-02-07T12:53:00Z</time>
      </trkpt>
      <trkpt lat="42.834720" lon="1.773225">
        <ele>1908.8</ele>
        <time>2010-02-07T12:53:15Z</time>
      </trkpt>
      <trkpt lat="42.834594" lon="1.773180">
        <ele>1909.3</ele>
        <time>2010-02-07T12:53:30Z</time>
      </trkpt>
      <trkpt lat="42.834474" lon="1.773149">
        <ele>1911.7</ele>
        <time>2010-02-07T12:53:43Z</time>
      </trkpt>
      <trkpt lat="42.834381" lon="1.773106">
        <ele>1912.7</ele>
        <time>2010-02-07T12:53:57Z</time>
      </trkpt>
      <trkpt lat="42.834325" lon="1.773066">
        <ele>1913.2</ele>
        <time>2010-02-07T12:54:08Z</time>
      </trkpt>
      <trkpt lat="42.834301" lon="1.773066">
        <ele>1913.2</ele>
        <time>2010-02-07T12:54:25Z</time>
      </trkpt>
      <trkpt lat="42.834262" lon="1.773063">
        <ele>1914.6</ele>
        <time>2010-02-07T12:55:13Z</time>
      </trkpt>
      <trkpt lat="42.834262" lon="1.773065">
        <ele>1914.1</ele>
        <time>2010-02-07T12:56:11Z</time>
      </trkpt>
      <trkpt lat="42.834251" lon="1.773060">
        <ele>1897.3</ele>
        <time>2010-02-07T12:57:44Z</time>
      </trkpt>
      <trkpt lat="42.834251" lon="1.773060">
        <ele>1913.6</ele>
        <time>2010-02-07T12:57:45Z</time>
      </trkpt>
      <trkpt lat="42.834251" lon="1.773060">
        <ele>1908.4</ele>
        <time>2010-02-07T12:57:48Z</time>
      </trkpt>
      <trkpt lat="42.834253" lon="1.773061">
        <ele>1914.1</ele>
        <time>2010-02-07T12:57:49Z</time>
      </trkpt>
      <trkpt lat="42.834253" lon="1.773061">
        <ele>1917.0</ele>
        <time>2010-02-07T12:57:52Z</time>
      </trkpt>
      <trkpt lat="42.834253" lon="1.773061">
        <ele>1915.1</ele>
        <time>2010-02-07T12:57:53Z</time>
      </trkpt>
      <trkpt lat="42.834253" lon="1.773061">
        <ele>1913.2</ele>
        <time>2010-02-07T12:57:55Z</time>
      </trkpt>
      <trkpt lat="42.834253" lon="1.773061">
        <ele>1918.9</ele>
        <time>2010-02-07T12:58:19Z</time>
      </trkpt>
      <trkpt lat="42.834253" lon="1.773061">
        <ele>1913.6</ele>
        <time>2010-02-07T12:58:20Z</time>
      </trkpt>
      <trkpt lat="42.834259" lon="1.773061">
        <ele>1912.7</ele>
        <time>2010-02-07T13:02:32Z</time>
      </trkpt>
      <trkpt lat="42.834258" lon="1.773059">
        <ele>1913.2</ele>
        <time>2010-02-07T13:03:27Z</time>
      </trkpt>
      <trkpt lat="42.834260" lon="1.773061">
        <ele>1913.6</ele>
        <time>2010-02-07T13:04:18Z</time>
      </trkpt>
      <trkpt lat="42.834255" lon="1.773061">
        <ele>1914.1</ele>
        <time>2010-02-07T13:06:45Z</time>
      </trkpt>
      <trkpt lat="42.834255" lon="1.773061">
        <ele>1912.7</ele>
        <time>2010-02-07T13:06:48Z</time>
      </trkpt>
      <trkpt lat="42.834214" lon="1.773035">
        <ele>1912.7</ele>
        <time>2010-02-07T13:14:38Z</time>
      </trkpt>
      <trkpt lat="42.834069" lon="1.772979">
        <ele>1915.6</ele>
        <time>2010-02-07T13:14:55Z</time>
      </trkpt>
      <trkpt lat="42.834037" lon="1.772958">
        <ele>1916.0</ele>
        <time>2010-02-07T13:14:59Z</time>
      </trkpt>
      <trkpt lat="42.833910" lon="1.772885">
        <ele>1917.5</ele>
        <time>2010-02-07T13:15:15Z</time>
      </trkpt>
      <trkpt lat="42.833890" lon="1.772871">
        <ele>1917.5</ele>
        <time>2010-02-07T13:15:17Z</time>
      </trkpt>
      <trkpt lat="42.833798" lon="1.772816">
        <ele>1918.9</ele>
        <time>2010-02-07T13:15:29Z</time>
      </trkpt>
      <trkpt lat="42.833755" lon="1.772763">
        <ele>1920.9</ele>
        <time>2010-02-07T13:15:38Z</time>
      </trkpt>
      <trkpt lat="42.833719" lon="1.772728">
        <ele>1921.3</ele>
        <time>2010-02-07T13:15:44Z</time>
      </trkpt>
      <trkpt lat="42.833656" lon="1.772697">
        <ele>1922.3</ele>
        <time>2010-02-07T13:15:56Z</time>
      </trkpt>
      <trkpt lat="42.833605" lon="1.772674">
        <ele>1925.2</ele>
        <time>2010-02-07T13:16:07Z</time>
      </trkpt>
      <trkpt lat="42.833514" lon="1.772649">
        <ele>1927.1</ele>
        <time>2010-02-07T13:16:20Z</time>
      </trkpt>
      <trkpt lat="42.833446" lon="1.772614">
        <ele>1929.0</ele>
        <time>2010-02-07T13:16:35Z</time>
      </trkpt>
      <trkpt lat="42.833371" lon="1.772568">
        <ele>1931.4</ele>
        <time>2010-02-07T13:16:49Z</time>
      </trkpt>
      <trkpt lat="42.833313" lon="1.772533">
        <ele>1931.9</ele>
        <time>2010-02-07T13:17:02Z</time>
      </trkpt>
      <trkpt lat="42.833215" lon="1.772486">
        <ele>1934.3</ele>
        <time>2010-02-07T13:17:16Z</time>
      </trkpt>
      <trkpt lat="42.833116" lon="1.772564">
        <ele>1940.1</ele>
        <time>2010-02-07T13:17:53Z</time>
      </trkpt>
      <trkpt lat="42.833028" lon="1.772618">
        <ele>1943.9</ele>
        <time>2010-02-07T13:18:20Z</time>
      </trkpt>
      <trkpt lat="42.832985" lon="1.772692">
        <ele>1947.3</ele>
        <time>2010-02-07T13:18:38Z</time>
      </trkpt>
      <trkpt lat="42.832910" lon="1.772752">
        <ele>1952.1</ele>
        <time>2010-02-07T13:19:08Z</time>
      </trkpt>
      <trkpt lat="42.832833" lon="1.772810">
        <ele>1956.4</ele>
        <time>2010-02-07T13:19:37Z</time>
      </trkpt>
      <trkpt lat="42.832757" lon="1.772826">
        <ele>1962.7</ele>
        <time>2010-02-07T13:20:13Z</time>
      </trkpt>
      <trkpt lat="42.832672" lon="1.772898">
        <ele>1964.6</ele>
        <time>2010-02-07T13:20:31Z</time>
      </trkpt>
      <trkpt lat="42.832593" lon="1.773014">
        <ele>1967.0</ele>
        <time>2010-02-07T13:20:48Z</time>
      </trkpt>
      <trkpt lat="42.832517" lon="1.773028">
        <ele>1968.4</ele>
        <time>2010-02-07T13:20:59Z</time>
      </trkpt>
      <trkpt lat="42.832445" lon="1.773037">
        <ele>1969.4</ele>
        <time>2010-02-07T13:21:11Z</time>
      </trkpt>
      <trkpt lat="42.832385" lon="1.773028">
        <ele>1971.8</ele>
        <time>2010-02-07T13:21:22Z</time>
      </trkpt>
      <trkpt lat="42.832340" lon="1.773004">
        <ele>1972.8</ele>
        <time>2010-02-07T13:21:29Z</time>
      </trkpt>
      <trkpt lat="42.832320" lon="1.772932">
        <ele>1975.6</ele>
        <time>2010-02-07T13:21:41Z</time>
      </trkpt>
      <trkpt lat="42.832318" lon="1.772921">
        <ele>1975.2</ele>
        <time>2010-02-07T13:21:42Z</time>
      </trkpt>
      <trkpt lat="42.832306" lon="1.772818">
        <ele>1976.1</ele>
        <time>2010-02-07T13:21:55Z</time>
      </trkpt>
      <trkpt lat="42.832203" lon="1.772696">
        <ele>1984.3</ele>
        <time>2010-02-07T13:22:42Z</time>
      </trkpt>
      <trkpt lat="42.832133" lon="1.772724">
        <ele>1986.7</ele>
        <time>2010-02-07T13:23:00Z</time>
      </trkpt>
      <trkpt lat="42.832083" lon="1.772723">
        <ele>1989.6</ele>
        <time>2010-02-07T13:23:13Z</time>
      </trkpt>
      <trkpt lat="42.831998" lon="1.772752">
        <ele>1990.5</ele>
        <time>2010-02-07T13:23:27Z</time>
      </trkpt>
      <trkpt lat="42.831962" lon="1.772757">
        <ele>1992.0</ele>
        <time>2010-02-07T13:23:32Z</time>
      </trkpt>
      <trkpt lat="42.831840" lon="1.772812">
        <ele>1992.0</ele>
        <time>2010-02-07T13:23:49Z</time>
      </trkpt>
      <trkpt lat="42.831731" lon="1.772827">
        <ele>1994.4</ele>
        <time>2010-02-07T13:24:05Z</time>
      </trkpt>
      <trkpt lat="42.831661" lon="1.772820">
        <ele>1997.3</ele>
        <time>2010-02-07T13:24:19Z</time>
      </trkpt>
      <trkpt lat="42.831597" lon="1.772825">
        <ele>1997.3</ele>
        <time>2010-02-07T13:24:30Z</time>
      </trkpt>
      <trkpt lat="42.831546" lon="1.772822">
        <ele>2000.6</ele>
        <time>2010-02-07T13:24:39Z</time>
      </trkpt>
      <trkpt lat="42.831546" lon="1.772822">
        <ele>2000.2</ele>
        <time>2010-02-07T13:24:40Z</time>
      </trkpt>
      <trkpt lat="42.831497" lon="1.772825">
        <ele>2002.1</ele>
        <time>2010-02-07T13:24:52Z</time>
      </trkpt>
      <trkpt lat="42.831422" lon="1.772812">
        <ele>2004.0</ele>
        <time>2010-02-07T13:25:07Z</time>
      </trkpt>
      <trkpt lat="42.831361" lon="1.772796">
        <ele>2005.4</ele>
        <time>2010-02-07T13:25:22Z</time>
      </trkpt>
      <trkpt lat="42.831319" lon="1.772771">
        <ele>2008.8</ele>
        <time>2010-02-07T13:25:33Z</time>
      </trkpt>
      <trkpt lat="42.831249" lon="1.772774">
        <ele>2010.7</ele>
        <time>2010-02-07T13:25:46Z</time>
      </trkpt>
      <trkpt lat="42.831183" lon="1.772792">
        <ele>2011.2</ele>
        <time>2010-02-07T13:25:57Z</time>
      </trkpt>
      <trkpt lat="42.831186" lon="1.772801">
        <ele>2015.1</ele>
        <time>2010-02-07T13:26:07Z</time>
      </trkpt>
      <trkpt lat="42.831170" lon="1.772939">
        <ele>2016.0</ele>
        <time>2010-02-07T13:27:09Z</time>
      </trkpt>
      <trkpt lat="42.831171" lon="1.772948">
        <ele>2017.0</ele>
        <time>2010-02-07T13:27:13Z</time>
      </trkpt>
      <trkpt lat="42.831108" lon="1.773009">
        <ele>2020.8</ele>
        <time>2010-02-07T13:27:35Z</time>
      </trkpt>
      <trkpt lat="42.831102" lon="1.773008">
        <ele>2020.3</ele>
        <time>2010-02-07T13:27:36Z</time>
      </trkpt>
      <trkpt lat="42.831049" lon="1.773004">
        <ele>2022.3</ele>
        <time>2010-02-07T13:27:49Z</time>
      </trkpt>
      <trkpt lat="42.830981" lon="1.773008">
        <ele>2024.2</ele>
        <time>2010-02-07T13:28:04Z</time>
      </trkpt>
      <trkpt lat="42.830958" lon="1.773013">
        <ele>2026.1</ele>
        <time>2010-02-07T13:28:12Z</time>
      </trkpt>
      <trkpt lat="42.830905" lon="1.773010">
        <ele>2028.0</ele>
        <time>2010-02-07T13:28:26Z</time>
      </trkpt>
      <trkpt lat="42.830838" lon="1.773136">
        <ele>2033.8</ele>
        <time>2010-02-07T13:29:07Z</time>
      </trkpt>
      <trkpt lat="42.830854" lon="1.773229">
        <ele>2035.2</ele>
        <time>2010-02-07T13:29:20Z</time>
      </trkpt>
      <trkpt lat="42.830860" lon="1.773310">
        <ele>2036.7</ele>
        <time>2010-02-07T13:29:33Z</time>
      </trkpt>
      <trkpt lat="42.830815" lon="1.773343">
        <ele>2040.1</ele>
        <time>2010-02-07T13:29:51Z</time>
      </trkpt>
      <trkpt lat="42.830804" lon="1.773348">
        <ele>2041.0</ele>
        <time>2010-02-07T13:29:53Z</time>
      </trkpt>
      <trkpt lat="42.830766" lon="1.773368">
        <ele>2043.4</ele>
        <time>2010-02-07T13:30:08Z</time>
      </trkpt>
      <trkpt lat="42.830757" lon="1.773441">
        <ele>2044.9</ele>
        <time>2010-02-07T13:30:18Z</time>
      </trkpt>
      <trkpt lat="42.830736" lon="1.773499">
        <ele>2045.8</ele>
        <time>2010-02-07T13:30:29Z</time>
      </trkpt>
      <trkpt lat="42.830667" lon="1.773515">
        <ele>2047.7</ele>
        <time>2010-02-07T13:30:43Z</time>
      </trkpt>
      <trkpt lat="42.830609" lon="1.773526">
        <ele>2049.7</ele>
        <time>2010-02-07T13:30:55Z</time>
      </trkpt>
      <trkpt lat="42.830508" lon="1.773521">
        <ele>2053.0</ele>
        <time>2010-02-07T13:31:11Z</time>
      </trkpt>
      <trkpt lat="42.830429" lon="1.773467">
        <ele>2054.0</ele>
        <time>2010-02-07T13:31:26Z</time>
      </trkpt>
      <trkpt lat="42.830342" lon="1.773414">
        <ele>2055.0</ele>
        <time>2010-02-07T13:31:41Z</time>
      </trkpt>
      <trkpt lat="42.830279" lon="1.773371">
        <ele>2058.3</ele>
        <time>2010-02-07T13:31:54Z</time>
      </trkpt>
      <trkpt lat="42.830233" lon="1.773307">
        <ele>2060.7</ele>
        <time>2010-02-07T13:32:09Z</time>
      </trkpt>
      <trkpt lat="42.830198" lon="1.773229">
        <ele>2063.1</ele>
        <time>2010-02-07T13:32:22Z</time>
      </trkpt>
      <trkpt lat="42.830170" lon="1.773172">
        <ele>2064.1</ele>
        <time>2010-02-07T13:32:39Z</time>
      </trkpt>
      <trkpt lat="42.830148" lon="1.773064">
        <ele>2067.5</ele>
        <time>2010-02-07T13:33:00Z</time>
      </trkpt>
      <trkpt lat="42.830126" lon="1.772980">
        <ele>2069.4</ele>
        <time>2010-02-07T13:33:10Z</time>
      </trkpt>
      <trkpt lat="42.830115" lon="1.772957">
        <ele>2068.4</ele>
        <time>2010-02-07T13:33:13Z</time>
      </trkpt>
      <trkpt lat="42.830127" lon="1.772812">
        <ele>2070.3</ele>
        <time>2010-02-07T13:33:27Z</time>
      </trkpt>
      <trkpt lat="42.830127" lon="1.772782">
        <ele>2071.8</ele>
        <time>2010-02-07T13:33:31Z</time>
      </trkpt>
      <trkpt lat="42.830113" lon="1.772614">
        <ele>2071.8</ele>
        <time>2010-02-07T13:33:45Z</time>
      </trkpt>
      <trkpt lat="42.830108" lon="1.772503">
        <ele>2070.8</ele>
        <time>2010-02-07T13:33:57Z</time>
      </trkpt>
      <trkpt lat="42.830069" lon="1.772426">
        <ele>2071.8</ele>
        <time>2010-02-07T13:34:09Z</time>
      </trkpt>
      <trkpt lat="42.830060" lon="1.772369">
        <ele>2075.1</ele>
        <time>2010-02-07T13:34:19Z</time>
      </trkpt>
      <trkpt lat="42.830058" lon="1.772360">
        <ele>2075.1</ele>
        <time>2010-02-07T13:34:20Z</time>
      </trkpt>
      <trkpt lat="42.830023" lon="1.772269">
        <ele>2076.6</ele>
        <time>2010-02-07T13:34:34Z</time>
      </trkpt>
      <trkpt lat="42.829947" lon="1.772248">
        <ele>2078.5</ele>
        <time>2010-02-07T13:34:48Z</time>
      </trkpt>
      <trkpt lat="42.829893" lon="1.772212">
        <ele>2080.9</ele>
        <time>2010-02-07T13:34:59Z</time>
      </trkpt>
      <trkpt lat="42.829831" lon="1.772221">
        <ele>2081.9</ele>
        <time>2010-02-07T13:35:13Z</time>
      </trkpt>
      <trkpt lat="42.829735" lon="1.772239">
        <ele>2083.8</ele>
        <time>2010-02-07T13:35:38Z</time>
      </trkpt>
      <trkpt lat="42.829721" lon="1.772231">
        <ele>2085.2</ele>
        <time>2010-02-07T13:35:41Z</time>
      </trkpt>
      <trkpt lat="42.829694" lon="1.772215">
        <ele>2086.2</ele>
        <time>2010-02-07T13:35:54Z</time>
      </trkpt>
      <trkpt lat="42.829642" lon="1.772222">
        <ele>2087.2</ele>
        <time>2010-02-07T13:36:15Z</time>
      </trkpt>
      <trkpt lat="42.829579" lon="1.772236">
        <ele>2089.1</ele>
        <time>2010-02-07T13:36:27Z</time>
      </trkpt>
      <trkpt lat="42.829531" lon="1.772255">
        <ele>2091.0</ele>
        <time>2010-02-07T13:36:41Z</time>
      </trkpt>
      <trkpt lat="42.829477" lon="1.772214">
        <ele>2094.4</ele>
        <time>2010-02-07T13:36:52Z</time>
      </trkpt>
      <trkpt lat="42.829419" lon="1.772179">
        <ele>2095.8</ele>
        <time>2010-02-07T13:37:04Z</time>
      </trkpt>
      <trkpt lat="42.829354" lon="1.772113">
        <ele>2096.8</ele>
        <time>2010-02-07T13:37:19Z</time>
      </trkpt>
      <trkpt lat="42.829264" lon="1.772087">
        <ele>2098.2</ele>
        <time>2010-02-07T13:37:35Z</time>
      </trkpt>
      <trkpt lat="42.829190" lon="1.772054">
        <ele>2101.1</ele>
        <time>2010-02-07T13:37:48Z</time>
      </trkpt>
      <trkpt lat="42.829105" lon="1.772060">
        <ele>2103.0</ele>
        <time>2010-02-07T13:38:03Z</time>
      </trkpt>
      <trkpt lat="42.829048" lon="1.772097">
        <ele>2104.9</ele>
        <time>2010-02-07T13:38:15Z</time>
      </trkpt>
      <trkpt lat="42.829038" lon="1.772096">
        <ele>2105.4</ele>
        <time>2010-02-07T13:38:17Z</time>
      </trkpt>
      <trkpt lat="42.829003" lon="1.772233">
        <ele>2109.8</ele>
        <time>2010-02-07T13:38:44Z</time>
      </trkpt>
      <trkpt lat="42.828965" lon="1.772265">
        <ele>2110.7</ele>
        <time>2010-02-07T13:38:56Z</time>
      </trkpt>
      <trkpt lat="42.828905" lon="1.772268">
        <ele>2113.6</ele>
        <time>2010-02-07T13:39:11Z</time>
      </trkpt>
      <trkpt lat="42.828875" lon="1.772298">
        <ele>2114.6</ele>
        <time>2010-02-07T13:39:28Z</time>
      </trkpt>
      <trkpt lat="42.828847" lon="1.772361">
        <ele>2116.5</ele>
        <time>2010-02-07T13:39:35Z</time>
      </trkpt>
      <trkpt lat="42.828760" lon="1.772374">
        <ele>2119.4</ele>
        <time>2010-02-07T13:39:52Z</time>
      </trkpt>
      <trkpt lat="42.828705" lon="1.772286">
        <ele>2119.8</ele>
        <time>2010-02-07T13:40:04Z</time>
      </trkpt>
      <trkpt lat="42.828672" lon="1.772241">
        <ele>2120.8</ele>
        <time>2010-02-07T13:40:18Z</time>
      </trkpt>
      <trkpt lat="42.828672" lon="1.772241">
        <ele>2120.8</ele>
        <time>2010-02-07T13:40:19Z</time>
      </trkpt>
      <trkpt lat="42.828585" lon="1.772219">
        <ele>2121.8</ele>
        <time>2010-02-07T13:40:33Z</time>
      </trkpt>
      <trkpt lat="42.828541" lon="1.772212">
        <ele>2123.2</ele>
        <time>2010-02-07T13:40:43Z</time>
      </trkpt>
      <trkpt lat="42.828481" lon="1.772213">
        <ele>2124.2</ele>
        <time>2010-02-07T13:40:58Z</time>
      </trkpt>
      <trkpt lat="42.828405" lon="1.772223">
        <ele>2125.6</ele>
        <time>2010-02-07T13:41:11Z</time>
      </trkpt>
      <trkpt lat="42.828382" lon="1.772230">
        <ele>2128.5</ele>
        <time>2010-02-07T13:41:26Z</time>
      </trkpt>
      <trkpt lat="42.828325" lon="1.772251">
        <ele>2129.9</ele>
        <time>2010-02-07T13:41:48Z</time>
      </trkpt>
      <trkpt lat="42.828249" lon="1.772259">
        <ele>2132.3</ele>
        <time>2010-02-07T13:42:05Z</time>
      </trkpt>
      <trkpt lat="42.828171" lon="1.772257">
        <ele>2133.8</ele>
        <time>2010-02-07T13:42:19Z</time>
      </trkpt>
      <trkpt lat="42.828131" lon="1.772264">
        <ele>2135.7</ele>
        <time>2010-02-07T13:42:33Z</time>
      </trkpt>
      <trkpt lat="42.828076" lon="1.772271">
        <ele>2136.7</ele>
        <time>2010-02-07T13:42:50Z</time>
      </trkpt>
      <trkpt lat="42.828022" lon="1.772284">
        <ele>2139.6</ele>
        <time>2010-02-07T13:43:09Z</time>
      </trkpt>
      <trkpt lat="42.828006" lon="1.772292">
        <ele>2140.0</ele>
        <time>2010-02-07T13:43:13Z</time>
      </trkpt>
      <trkpt lat="42.827955" lon="1.772324">
        <ele>2141.5</ele>
        <time>2010-02-07T13:43:25Z</time>
      </trkpt>
      <trkpt lat="42.827900" lon="1.772327">
        <ele>2143.9</ele>
        <time>2010-02-07T13:43:38Z</time>
      </trkpt>
      <trkpt lat="42.827858" lon="1.772317">
        <ele>2144.8</ele>
        <time>2010-02-07T13:43:54Z</time>
      </trkpt>
      <trkpt lat="42.827783" lon="1.772345">
        <ele>2147.2</ele>
        <time>2010-02-07T13:44:09Z</time>
      </trkpt>
      <trkpt lat="42.827686" lon="1.772351">
        <ele>2148.7</ele>
        <time>2010-02-07T13:44:24Z</time>
      </trkpt>
      <trkpt lat="42.827598" lon="1.772386">
        <ele>2151.6</ele>
        <time>2010-02-07T13:44:40Z</time>
      </trkpt>
      <trkpt lat="42.827557" lon="1.772397">
        <ele>2153.0</ele>
        <time>2010-02-07T13:44:52Z</time>
      </trkpt>
      <trkpt lat="42.827495" lon="1.772426">
        <ele>2155.4</ele>
        <time>2010-02-07T13:45:06Z</time>
      </trkpt>
      <trkpt lat="42.827423" lon="1.772448">
        <ele>2156.4</ele>
        <time>2010-02-07T13:45:21Z</time>
      </trkpt>
      <trkpt lat="42.827366" lon="1.772459">
        <ele>2158.8</ele>
        <time>2010-02-07T13:45:37Z</time>
      </trkpt>
      <trkpt lat="42.827341" lon="1.772466">
        <ele>2159.7</ele>
        <time>2010-02-07T13:45:43Z</time>
      </trkpt>
      <trkpt lat="42.827280" lon="1.772477">
        <ele>2161.7</ele>
        <time>2010-02-07T13:45:55Z</time>
      </trkpt>
      <trkpt lat="42.827225" lon="1.772477">
        <ele>2163.1</ele>
        <time>2010-02-07T13:46:09Z</time>
      </trkpt>
      <trkpt lat="42.827156" lon="1.772476">
        <ele>2164.5</ele>
        <time>2010-02-07T13:46:20Z</time>
      </trkpt>
      <trkpt lat="42.827080" lon="1.772470">
        <ele>2167.9</ele>
        <time>2010-02-07T13:46:36Z</time>
      </trkpt>
      <trkpt lat="42.827044" lon="1.772523">
        <ele>2170.3</ele>
        <time>2010-02-07T13:46:54Z</time>
      </trkpt>
      <trkpt lat="42.826950" lon="1.772526">
        <ele>2172.2</ele>
        <time>2010-02-07T13:47:11Z</time>
      </trkpt>
      <trkpt lat="42.826825" lon="1.772583">
        <ele>2179.4</ele>
        <time>2010-02-07T13:47:53Z</time>
      </trkpt>
      <trkpt lat="42.826788" lon="1.772658">
        <ele>2179.9</ele>
        <time>2010-02-07T13:48:06Z</time>
      </trkpt>
      <trkpt lat="42.826749" lon="1.772697">
        <ele>2183.8</ele>
        <time>2010-02-07T13:48:18Z</time>
      </trkpt>
      <trkpt lat="42.826701" lon="1.772684">
        <ele>2184.7</ele>
        <time>2010-02-07T13:48:31Z</time>
      </trkpt>
      <trkpt lat="42.826643" lon="1.772596">
        <ele>2185.7</ele>
        <time>2010-02-07T13:48:46Z</time>
      </trkpt>
      <trkpt lat="42.826606" lon="1.772541">
        <ele>2187.6</ele>
        <time>2010-02-07T13:49:04Z</time>
      </trkpt>
      <trkpt lat="42.826539" lon="1.772416">
        <ele>2191.9</ele>
        <time>2010-02-07T13:49:24Z</time>
      </trkpt>
      <trkpt lat="42.826490" lon="1.772315">
        <ele>2193.9</ele>
        <time>2010-02-07T13:49:40Z</time>
      </trkpt>
      <trkpt lat="42.826445" lon="1.772232">
        <ele>2195.3</ele>
        <time>2010-02-07T13:49:54Z</time>
      </trkpt>
      <trkpt lat="42.826395" lon="1.772142">
        <ele>2197.2</ele>
        <time>2010-02-07T13:50:09Z</time>
      </trkpt>
      <trkpt lat="42.826375" lon="1.772123">
        <ele>2198.7</ele>
        <time>2010-02-07T13:50:35Z</time>
      </trkpt>
      <trkpt lat="42.826375" lon="1.772125">
        <ele>2196.7</ele>
        <time>2010-02-07T13:51:21Z</time>
      </trkpt>
      <trkpt lat="42.826329" lon="1.772105">
        <ele>2195.8</ele>
        <time>2010-02-07T13:51:43Z</time>
      </trkpt>
      <trkpt lat="42.826193" lon="1.772060">
        <ele>2194.8</ele>
        <time>2010-02-07T13:51:58Z</time>
      </trkpt>
      <trkpt lat="42.826178" lon="1.772059">
        <ele>2195.3</ele>
        <time>2010-02-07T13:52:19Z</time>
      </trkpt>
      <trkpt lat="42.826178" lon="1.772059">
        <ele>2196.3</ele>
        <time>2010-02-07T13:52:41Z</time>
      </trkpt>
      <trkpt lat="42.826075" lon="1.772064">
        <ele>2192.9</ele>
        <time>2010-02-07T13:52:50Z</time>
      </trkpt>
      <trkpt lat="42.825950" lon="1.771975">
        <ele>2191.0</ele>
        <time>2010-02-07T13:53:00Z</time>
      </trkpt>
      <trkpt lat="42.825860" lon="1.771932">
        <ele>2190.5</ele>
        <time>2010-02-07T13:53:14Z</time>
      </trkpt>
      <trkpt lat="42.825837" lon="1.771932">
        <ele>2191.0</ele>
        <time>2010-02-07T13:53:17Z</time>
      </trkpt>
      <trkpt lat="42.825788" lon="1.771915">
        <ele>2191.5</ele>
        <time>2010-02-07T13:53:22Z</time>
      </trkpt>
      <trkpt lat="42.825760" lon="1.771902">
        <ele>2190.0</ele>
        <time>2010-02-07T13:53:25Z</time>
      </trkpt>
      <trkpt lat="42.825695" lon="1.771871">
        <ele>2190.5</ele>
        <time>2010-02-07T13:53:34Z</time>
      </trkpt>
      <trkpt lat="42.825581" lon="1.771834">
        <ele>2189.5</ele>
        <time>2010-02-07T13:53:47Z</time>
      </trkpt>
      <trkpt lat="42.825571" lon="1.771831">
        <ele>2189.1</ele>
        <time>2010-02-07T13:53:48Z</time>
      </trkpt>
      <trkpt lat="42.825478" lon="1.771843">
        <ele>2190.0</ele>
        <time>2010-02-07T13:54:00Z</time>
      </trkpt>
      <trkpt lat="42.825365" lon="1.771801">
        <ele>2191.0</ele>
        <time>2010-02-07T13:54:13Z</time>
      </trkpt>
      <trkpt lat="42.825334" lon="1.771782">
        <ele>2191.9</ele>
        <time>2010-02-07T13:54:19Z</time>
      </trkpt>
      <trkpt lat="42.825257" lon="1.771771">
        <ele>2192.9</ele>
        <time>2010-02-07T13:54:29Z</time>
      </trkpt>
      <trkpt lat="42.825147" lon="1.771743">
        <ele>2192.9</ele>
        <time>2010-02-07T13:54:41Z</time>
      </trkpt>
      <trkpt lat="42.825075" lon="1.771706">
        <ele>2194.8</ele>
        <time>2010-02-07T13:54:54Z</time>
      </trkpt>
      <trkpt lat="42.825036" lon="1.771693">
        <ele>2195.3</ele>
        <time>2010-02-07T13:55:08Z</time>
      </trkpt>
      <trkpt lat="42.824953" lon="1.771660">
        <ele>2198.2</ele>
        <time>2010-02-07T13:55:48Z</time>
      </trkpt>
      <trkpt lat="42.824896" lon="1.771648">
        <ele>2197.7</ele>
        <time>2010-02-07T13:56:09Z</time>
      </trkpt>
      <trkpt lat="42.824860" lon="1.771574">
        <ele>2199.2</ele>
        <time>2010-02-07T13:56:31Z</time>
      </trkpt>
      <trkpt lat="42.824836" lon="1.771575">
        <ele>2199.6</ele>
        <time>2010-02-07T13:56:42Z</time>
      </trkpt>
      <trkpt lat="42.824799" lon="1.771561">
        <ele>2200.6</ele>
        <time>2010-02-07T13:56:56Z</time>
      </trkpt>
      <trkpt lat="42.824749" lon="1.771522">
        <ele>2200.1</ele>
        <time>2010-02-07T13:57:09Z</time>
      </trkpt>
      <trkpt lat="42.824693" lon="1.771561">
        <ele>2203.0</ele>
        <time>2010-02-07T13:57:24Z</time>
      </trkpt>
      <trkpt lat="42.824623" lon="1.771568">
        <ele>2203.5</ele>
        <time>2010-02-07T13:57:36Z</time>
      </trkpt>
      <trkpt lat="42.824558" lon="1.771582">
        <ele>2205.4</ele>
        <time>2010-02-07T13:57:47Z</time>
      </trkpt>
      <trkpt lat="42.824526" lon="1.771571">
        <ele>2205.4</ele>
        <time>2010-02-07T13:58:08Z</time>
      </trkpt>
      <trkpt lat="42.824499" lon="1.771598">
        <ele>2206.4</ele>
        <time>2010-02-07T13:58:18Z</time>
      </trkpt>
      <trkpt lat="42.824451" lon="1.771643">
        <ele>2208.8</ele>
        <time>2010-02-07T13:58:35Z</time>
      </trkpt>
      <trkpt lat="42.824380" lon="1.771698">
        <ele>2209.7</ele>
        <time>2010-02-07T13:58:48Z</time>
      </trkpt>
      <trkpt lat="42.824312" lon="1.771750">
        <ele>2208.8</ele>
        <time>2010-02-07T13:59:33Z</time>
      </trkpt>
      <trkpt lat="42.824299" lon="1.771748">
        <ele>2208.8</ele>
        <time>2010-02-07T13:59:35Z</time>
      </trkpt>
      <trkpt lat="42.824220" lon="1.771800">
        <ele>2209.7</ele>
        <time>2010-02-07T13:59:47Z</time>
      </trkpt>
      <trkpt lat="42.824187" lon="1.771805">
        <ele>2210.7</ele>
        <time>2010-02-07T14:00:05Z</time>
      </trkpt>
      <trkpt lat="42.824187" lon="1.771805">
        <ele>2206.4</ele>
        <time>2010-02-07T14:00:09Z</time>
      </trkpt>
      <trkpt lat="42.824187" lon="1.771805">
        <ele>2210.7</ele>
        <time>2010-02-07T14:00:10Z</time>
      </trkpt>
      <trkpt lat="42.824109" lon="1.771844">
        <ele>2211.2</ele>
        <time>2010-02-07T14:00:22Z</time>
      </trkpt>
      <trkpt lat="42.824054" lon="1.771875">
        <ele>2212.1</ele>
        <time>2010-02-07T14:00:35Z</time>
      </trkpt>
      <trkpt lat="42.824008" lon="1.771913">
        <ele>2212.6</ele>
        <time>2010-02-07T14:00:48Z</time>
      </trkpt>
      <trkpt lat="42.823931" lon="1.771932">
        <ele>2213.1</ele>
        <time>2010-02-07T14:01:01Z</time>
      </trkpt>
      <trkpt lat="42.823895" lon="1.771941">
        <ele>2213.1</ele>
        <time>2010-02-07T14:01:12Z</time>
      </trkpt>
      <trkpt lat="42.823832" lon="1.771969">
        <ele>2214.1</ele>
        <time>2010-02-07T14:01:25Z</time>
      </trkpt>
      <trkpt lat="42.823822" lon="1.771966">
        <ele>2214.5</ele>
        <time>2010-02-07T14:01:27Z</time>
      </trkpt>
      <trkpt lat="42.823754" lon="1.771986">
        <ele>2214.5</ele>
        <time>2010-02-07T14:01:38Z</time>
      </trkpt>
      <trkpt lat="42.823677" lon="1.772000">
        <ele>2214.5</ele>
        <time>2010-02-07T14:01:51Z</time>
      </trkpt>
      <trkpt lat="42.823583" lon="1.771987">
        <ele>2213.6</ele>
        <time>2010-02-07T14:02:05Z</time>
      </trkpt>
      <trkpt lat="42.823508" lon="1.771978">
        <ele>2215.0</ele>
        <time>2010-02-07T14:02:17Z</time>
      </trkpt>
      <trkpt lat="42.823450" lon="1.771958">
        <ele>2214.1</ele>
        <time>2010-02-07T14:02:31Z</time>
      </trkpt>
      <trkpt lat="42.823393" lon="1.771924">
        <ele>2214.5</ele>
        <time>2010-02-07T14:02:43Z</time>
      </trkpt>
      <trkpt lat="42.823353" lon="1.771903">
        <ele>2214.1</ele>
        <time>2010-02-07T14:02:55Z</time>
      </trkpt>
      <trkpt lat="42.823294" lon="1.771872">
        <ele>2213.6</ele>
        <time>2010-02-07T14:03:17Z</time>
      </trkpt>
      <trkpt lat="42.823274" lon="1.771865">
        <ele>2214.1</ele>
        <time>2010-02-07T14:03:21Z</time>
      </trkpt>
      <trkpt lat="42.823182" lon="1.771823">
        <ele>2212.1</ele>
        <time>2010-02-07T14:03:36Z</time>
      </trkpt>
      <trkpt lat="42.823116" lon="1.771798">
        <ele>2211.7</ele>
        <time>2010-02-07T14:03:49Z</time>
      </trkpt>
      <trkpt lat="42.823079" lon="1.771780">
        <ele>2209.2</ele>
        <time>2010-02-07T14:04:02Z</time>
      </trkpt>
      <trkpt lat="42.823065" lon="1.771764">
        <ele>2209.7</ele>
        <time>2010-02-07T14:04:22Z</time>
      </trkpt>
      <trkpt lat="42.823026" lon="1.771719">
        <ele>2207.8</ele>
        <time>2010-02-07T14:04:43Z</time>
      </trkpt>
      <trkpt lat="42.823022" lon="1.771714">
        <ele>2207.8</ele>
        <time>2010-02-07T14:04:56Z</time>
      </trkpt>
      <trkpt lat="42.823001" lon="1.771669">
        <ele>2206.4</ele>
        <time>2010-02-07T14:05:00Z</time>
      </trkpt>
      <trkpt lat="42.822976" lon="1.771641">
        <ele>2206.4</ele>
        <time>2010-02-07T14:05:18Z</time>
      </trkpt>
      <trkpt lat="42.822963" lon="1.771629">
        <ele>2207.3</ele>
        <time>2010-02-07T14:05:50Z</time>
      </trkpt>
      <trkpt lat="42.822951" lon="1.771617">
        <ele>2206.8</ele>
        <time>2010-02-07T14:06:11Z</time>
      </trkpt>
      <trkpt lat="42.822838" lon="1.771696">
        <ele>2222.7</ele>
        <time>2010-02-07T14:12:49Z</time>
      </trkpt>
      <trkpt lat="42.822820" lon="1.771710">
        <ele>2222.7</ele>
        <time>2010-02-07T14:12:58Z</time>
      </trkpt>
      <trkpt lat="42.822780" lon="1.771725">
        <ele>2225.1</ele>
        <time>2010-02-07T14:13:11Z</time>
      </trkpt>
      <trkpt lat="42.822737" lon="1.771716">
        <ele>2225.1</ele>
        <time>2010-02-07T14:13:23Z</time>
      </trkpt>
      <trkpt lat="42.822695" lon="1.771692">
        <ele>2226.6</ele>
        <time>2010-02-07T14:13:36Z</time>
      </trkpt>
      <trkpt lat="42.822678" lon="1.771682">
        <ele>2228.0</ele>
        <time>2010-02-07T14:13:45Z</time>
      </trkpt>
      <trkpt lat="42.822646" lon="1.771727">
        <ele>2229.0</ele>
        <time>2010-02-07T14:14:03Z</time>
      </trkpt>
      <trkpt lat="42.822623" lon="1.771731">
        <ele>2232.3</ele>
        <time>2010-02-07T14:14:24Z</time>
      </trkpt>
      <trkpt lat="42.822575" lon="1.771745">
        <ele>2232.8</ele>
        <time>2010-02-07T14:14:36Z</time>
      </trkpt>
      <trkpt lat="42.822529" lon="1.771757">
        <ele>2234.7</ele>
        <time>2010-02-07T14:14:51Z</time>
      </trkpt>
      <trkpt lat="42.822435" lon="1.771730">
        <ele>2236.2</ele>
        <time>2010-02-07T14:15:06Z</time>
      </trkpt>
      <trkpt lat="42.822378" lon="1.771701">
        <ele>2238.6</ele>
        <time>2010-02-07T14:15:17Z</time>
      </trkpt>
      <trkpt lat="42.822326" lon="1.771682">
        <ele>2239.0</ele>
        <time>2010-02-07T14:15:29Z</time>
      </trkpt>
      <trkpt lat="42.822254" lon="1.771740">
        <ele>2242.9</ele>
        <time>2010-02-07T14:16:01Z</time>
      </trkpt>
      <trkpt lat="42.822215" lon="1.771752">
        <ele>2244.8</ele>
        <time>2010-02-07T14:16:14Z</time>
      </trkpt>
      <trkpt lat="42.822151" lon="1.771771">
        <ele>2246.3</ele>
        <time>2010-02-07T14:16:28Z</time>
      </trkpt>
      <trkpt lat="42.822121" lon="1.771753">
        <ele>2246.7</ele>
        <time>2010-02-07T14:16:40Z</time>
      </trkpt>
      <trkpt lat="42.822060" lon="1.771802">
        <ele>2249.6</ele>
        <time>2010-02-07T14:17:10Z</time>
      </trkpt>
      <trkpt lat="42.821991" lon="1.771729">
        <ele>2251.5</ele>
        <time>2010-02-07T14:17:24Z</time>
      </trkpt>
      <trkpt lat="42.821930" lon="1.771733">
        <ele>2250.6</ele>
        <time>2010-02-07T14:17:35Z</time>
      </trkpt>
      <trkpt lat="42.821893" lon="1.771792">
        <ele>2251.5</ele>
        <time>2010-02-07T14:17:52Z</time>
      </trkpt>
      <trkpt lat="42.821880" lon="1.771818">
        <ele>2252.5</ele>
        <time>2010-02-07T14:18:01Z</time>
      </trkpt>
      <trkpt lat="42.821836" lon="1.771819">
        <ele>2256.4</ele>
        <time>2010-02-07T14:18:32Z</time>
      </trkpt>
      <trkpt lat="42.821782" lon="1.771791">
        <ele>2257.3</ele>
        <time>2010-02-07T14:18:46Z</time>
      </trkpt>
      <trkpt lat="42.821759" lon="1.771781">
        <ele>2258.3</ele>
        <time>2010-02-07T14:19:01Z</time>
      </trkpt>
      <trkpt lat="42.821753" lon="1.771801">
        <ele>2261.2</ele>
        <time>2010-02-07T14:19:31Z</time>
      </trkpt>
      <trkpt lat="42.821714" lon="1.771864">
        <ele>2262.6</ele>
        <time>2010-02-07T14:19:44Z</time>
      </trkpt>
      <trkpt lat="42.821707" lon="1.771881">
        <ele>2263.1</ele>
        <time>2010-02-07T14:19:56Z</time>
      </trkpt>
      <trkpt lat="42.821672" lon="1.771875">
        <ele>2265.5</ele>
        <time>2010-02-07T14:20:21Z</time>
      </trkpt>
      <trkpt lat="42.821643" lon="1.771829">
        <ele>2266.0</ele>
        <time>2010-02-07T14:20:34Z</time>
      </trkpt>
      <trkpt lat="42.821605" lon="1.771800">
        <ele>2269.3</ele>
        <time>2010-02-07T14:20:48Z</time>
      </trkpt>
      <trkpt lat="42.821571" lon="1.771777">
        <ele>2269.8</ele>
        <time>2010-02-07T14:20:56Z</time>
      </trkpt>
      <trkpt lat="42.821546" lon="1.771758">
        <ele>2271.3</ele>
        <time>2010-02-07T14:21:05Z</time>
      </trkpt>
      <trkpt lat="42.821535" lon="1.771737">
        <ele>2271.7</ele>
        <time>2010-02-07T14:21:11Z</time>
      </trkpt>
      <trkpt lat="42.821507" lon="1.771691">
        <ele>2273.2</ele>
        <time>2010-02-07T14:21:23Z</time>
      </trkpt>
      <trkpt lat="42.821469" lon="1.771638">
        <ele>2273.2</ele>
        <time>2010-02-07T14:21:35Z</time>
      </trkpt>
      <trkpt lat="42.821432" lon="1.771584">
        <ele>2272.2</ele>
        <time>2010-02-07T14:21:55Z</time>
      </trkpt>
      <trkpt lat="42.821375" lon="1.771573">
        <ele>2272.2</ele>
        <time>2010-02-07T14:22:07Z</time>
      </trkpt>
      <trkpt lat="42.821352" lon="1.771573">
        <ele>2270.8</ele>
        <time>2010-02-07T14:22:10Z</time>
      </trkpt>
      <trkpt lat="42.821308" lon="1.771559">
        <ele>2271.7</ele>
        <time>2010-02-07T14:22:18Z</time>
      </trkpt>
      <trkpt lat="42.821212" lon="1.771500">
        <ele>2273.2</ele>
        <time>2010-02-07T14:22:33Z</time>
      </trkpt>
      <trkpt lat="42.821142" lon="1.771472">
        <ele>2274.1</ele>
        <time>2010-02-07T14:22:47Z</time>
      </trkpt>
      <trkpt lat="42.821053" lon="1.771429">
        <ele>2275.1</ele>
        <time>2010-02-07T14:23:02Z</time>
      </trkpt>
      <trkpt lat="42.820980" lon="1.771408">
        <ele>2276.5</ele>
        <time>2010-02-07T14:23:14Z</time>
      </trkpt>
      <trkpt lat="42.820882" lon="1.771422">
        <ele>2277.0</ele>
        <time>2010-02-07T14:23:29Z</time>
      </trkpt>
      <trkpt lat="42.820782" lon="1.771417">
        <ele>2277.5</ele>
        <time>2010-02-07T14:23:45Z</time>
      </trkpt>
      <trkpt lat="42.820707" lon="1.771403">
        <ele>2279.9</ele>
        <time>2010-02-07T14:24:55Z</time>
      </trkpt>
      <trkpt lat="42.820674" lon="1.771360">
        <ele>2281.8</ele>
        <time>2010-02-07T14:28:02Z</time>
      </trkpt>
      <trkpt lat="42.820658" lon="1.771357">
        <ele>2281.8</ele>
        <time>2010-02-07T14:28:06Z</time>
      </trkpt>
      <trkpt lat="42.820634" lon="1.771336">
        <ele>2283.3</ele>
        <time>2010-02-07T14:28:11Z</time>
      </trkpt>
      <trkpt lat="42.820595" lon="1.771357">
        <ele>2284.7</ele>
        <time>2010-02-07T14:28:22Z</time>
      </trkpt>
      <trkpt lat="42.820550" lon="1.771399">
        <ele>2286.6</ele>
        <time>2010-02-07T14:28:37Z</time>
      </trkpt>
      <trkpt lat="42.820488" lon="1.771466">
        <ele>2288.1</ele>
        <time>2010-02-07T14:28:52Z</time>
      </trkpt>
      <trkpt lat="42.820482" lon="1.771475">
        <ele>2289.0</ele>
        <time>2010-02-07T14:28:54Z</time>
      </trkpt>
      <trkpt lat="42.820439" lon="1.771499">
        <ele>2289.5</ele>
        <time>2010-02-07T14:29:06Z</time>
      </trkpt>
      <trkpt lat="42.820426" lon="1.771504">
        <ele>2291.0</ele>
        <time>2010-02-07T14:29:10Z</time>
      </trkpt>
      <trkpt lat="42.820353" lon="1.771528">
        <ele>2292.4</ele>
        <time>2010-02-07T14:29:24Z</time>
      </trkpt>
      <trkpt lat="42.820317" lon="1.771496">
        <ele>2293.8</ele>
        <time>2010-02-07T14:29:41Z</time>
      </trkpt>
      <trkpt lat="42.820299" lon="1.771474">
        <ele>2297.2</ele>
        <time>2010-02-07T14:29:55Z</time>
      </trkpt>
      <trkpt lat="42.820252" lon="1.771489">
        <ele>2299.1</ele>
        <time>2010-02-07T14:30:14Z</time>
      </trkpt>
      <trkpt lat="42.820224" lon="1.771464">
        <ele>2300.1</ele>
        <time>2010-02-07T14:30:29Z</time>
      </trkpt>
      <trkpt lat="42.820131" lon="1.771369">
        <ele>2307.8</ele>
        <time>2010-02-07T14:31:11Z</time>
      </trkpt>
      <trkpt lat="42.820059" lon="1.771376">
        <ele>2309.7</ele>
        <time>2010-02-07T14:31:28Z</time>
      </trkpt>
      <trkpt lat="42.819975" lon="1.771368">
        <ele>2310.7</ele>
        <time>2010-02-07T14:31:44Z</time>
      </trkpt>
      <trkpt lat="42.819885" lon="1.771376">
        <ele>2311.6</ele>
        <time>2010-02-07T14:32:00Z</time>
      </trkpt>
      <trkpt lat="42.819819" lon="1.771346">
        <ele>2312.1</ele>
        <time>2010-02-07T14:32:14Z</time>
      </trkpt>
      <trkpt lat="42.819757" lon="1.771363">
        <ele>2312.6</ele>
        <time>2010-02-07T14:32:25Z</time>
      </trkpt>
      <trkpt lat="42.819707" lon="1.771402">
        <ele>2314.5</ele>
        <time>2010-02-07T14:32:37Z</time>
      </trkpt>
      <trkpt lat="42.819678" lon="1.771415">
        <ele>2316.4</ele>
        <time>2010-02-07T14:32:49Z</time>
      </trkpt>
      <trkpt lat="42.819624" lon="1.771445">
        <ele>2318.8</ele>
        <time>2010-02-07T14:33:01Z</time>
      </trkpt>
      <trkpt lat="42.819557" lon="1.771477">
        <ele>2319.8</ele>
        <time>2010-02-07T14:33:17Z</time>
      </trkpt>
      <trkpt lat="42.819523" lon="1.771487">
        <ele>2320.8</ele>
        <time>2010-02-07T14:33:24Z</time>
      </trkpt>
      <trkpt lat="42.819509" lon="1.771479">
        <ele>2320.8</ele>
        <time>2010-02-07T14:33:43Z</time>
      </trkpt>
      <trkpt lat="42.819428" lon="1.771447">
        <ele>2323.2</ele>
        <time>2010-02-07T14:34:12Z</time>
      </trkpt>
      <trkpt lat="42.819338" lon="1.771420">
        <ele>2325.1</ele>
        <time>2010-02-07T14:34:27Z</time>
      </trkpt>
      <trkpt lat="42.819275" lon="1.771398">
        <ele>2328.5</ele>
        <time>2010-02-07T14:34:43Z</time>
      </trkpt>
      <trkpt lat="42.819263" lon="1.771394">
        <ele>2328.9</ele>
        <time>2010-02-07T14:34:47Z</time>
      </trkpt>
      <trkpt lat="42.819239" lon="1.771378">
        <ele>2331.3</ele>
        <time>2010-02-07T14:35:04Z</time>
      </trkpt>
      <trkpt lat="42.819210" lon="1.771341">
        <ele>2332.3</ele>
        <time>2010-02-07T14:35:17Z</time>
      </trkpt>
      <trkpt lat="42.819208" lon="1.771312">
        <ele>2333.7</ele>
        <time>2010-02-07T14:35:33Z</time>
      </trkpt>
      <trkpt lat="42.819205" lon="1.771298">
        <ele>2337.6</ele>
        <time>2010-02-07T14:35:51Z</time>
      </trkpt>
      <trkpt lat="42.819155" lon="1.771233">
        <ele>2339.0</ele>
        <time>2010-02-07T14:36:14Z</time>
      </trkpt>
      <trkpt lat="42.819154" lon="1.771200">
        <ele>2340.5</ele>
        <time>2010-02-07T14:36:27Z</time>
      </trkpt>
      <trkpt lat="42.819152" lon="1.771190">
        <ele>2341.4</ele>
        <time>2010-02-07T14:36:44Z</time>
      </trkpt>
      <trkpt lat="42.819117" lon="1.771139">
        <ele>2339.0</ele>
        <time>2010-02-07T14:39:14Z</time>
      </trkpt>
    </trkseg>
  </trk>
</gpx>

